<?xml version="1.0" encoding="UTF-8" standalone="no" ?>
<gpx xmlns="http://www.topografix.com/GPX/1/1" xmlns:xsi="http://www.w3.org/2001/XMLSchema-instance" xsi:schemaLocation="http://www.topografix.com/GPX/1/1 http://www.topografix.com/GPX/1/1/gpx.xsd" version="1.1" creator="VisuGPX - https://www.visugpx.com">
  <metadata>
    <name>sortie du 19/04/2011</name>
    <desc><![CDATA[Encore une belle sortie accompagnée par Michel]]></desc>
  </metadata>
  <trk>
    <name><![CDATA[ACTIVE LOG 006]]></name>
    <trkseg>
      <trkpt lat="47.07431" lon="5.49495">
        <ele>195.284912</ele>
        <time>2011-04-19T11:45:56Z</time>
      </trkpt>
      <trkpt lat="47.07439" lon="5.49472">
        <ele>194.32373</ele>
        <time>2011-04-19T11:46:00Z</time>
      </trkpt>
      <trkpt lat="47.07438" lon="5.49424">
        <ele>194.32373</ele>
        <time>2011-04-19T11:46:08Z</time>
      </trkpt>
      <trkpt lat="47.07429" lon="5.49421">
        <ele>194.804321</ele>
        <time>2011-04-19T11:46:10Z</time>
      </trkpt>
      <trkpt lat="47.07418" lon="5.49421">
        <ele>196.726929</ele>
        <time>2011-04-19T11:46:13Z</time>
      </trkpt>
      <trkpt lat="47.07407" lon="5.49415">
        <ele>198.649536</ele>
        <time>2011-04-19T11:46:17Z</time>
      </trkpt>
      <trkpt lat="47.07389" lon="5.49396">
        <ele>202.014282</ele>
        <time>2011-04-19T11:46:24Z</time>
      </trkpt>
      <trkpt lat="47.07378" lon="5.49381">
        <ele>203.93689</ele>
        <time>2011-04-19T11:46:28Z</time>
      </trkpt>
      <trkpt lat="47.07369" lon="5.49369">
        <ele>204.898071</ele>
        <time>2011-04-19T11:46:31Z</time>
      </trkpt>
      <trkpt lat="47.07334" lon="5.4932">
        <ele>208.262817</ele>
        <time>2011-04-19T11:46:44Z</time>
      </trkpt>
      <trkpt lat="47.07261" lon="5.49224">
        <ele>210.185425</ele>
        <time>2011-04-19T11:47:08Z</time>
      </trkpt>
      <trkpt lat="47.07235" lon="5.49183">
        <ele>209.224121</ele>
        <time>2011-04-19T11:47:16Z</time>
      </trkpt>
      <trkpt lat="47.0721" lon="5.49107">
        <ele>208.743408</ele>
        <time>2011-04-19T11:47:28Z</time>
      </trkpt>
      <trkpt lat="47.07175" lon="5.49019">
        <ele>207.301392</ele>
        <time>2011-04-19T11:47:45Z</time>
      </trkpt>
      <trkpt lat="47.07164" lon="5.48996">
        <ele>207.301392</ele>
        <time>2011-04-19T11:47:49Z</time>
      </trkpt>
      <trkpt lat="47.07131" lon="5.48949">
        <ele>206.820679</ele>
        <time>2011-04-19T11:47:57Z</time>
      </trkpt>
      <trkpt lat="47.07082" lon="5.48837">
        <ele>207.301392</ele>
        <time>2011-04-19T11:48:14Z</time>
      </trkpt>
      <trkpt lat="47.07067" lon="5.48816">
        <ele>206.820679</ele>
        <time>2011-04-19T11:48:19Z</time>
      </trkpt>
      <trkpt lat="47.07069" lon="5.48826">
        <ele>207.301392</ele>
        <time>2011-04-19T11:48:23Z</time>
      </trkpt>
      <trkpt lat="47.07079" lon="5.48839">
        <ele>207.782104</ele>
        <time>2011-04-19T11:48:25Z</time>
      </trkpt>
      <trkpt lat="47.07144" lon="5.48961">
        <ele>209.224121</ele>
        <time>2011-04-19T11:48:37Z</time>
      </trkpt>
      <trkpt lat="47.07209" lon="5.49101">
        <ele>209.704834</ele>
        <time>2011-04-19T11:48:50Z</time>
      </trkpt>
      <trkpt lat="47.07225" lon="5.49147">
        <ele>209.224121</ele>
        <time>2011-04-19T11:48:54Z</time>
      </trkpt>
      <trkpt lat="47.07234" lon="5.49181">
        <ele>209.704834</ele>
        <time>2011-04-19T11:48:57Z</time>
      </trkpt>
      <trkpt lat="47.07321" lon="5.493">
        <ele>211.627441</ele>
        <time>2011-04-19T11:49:12Z</time>
      </trkpt>
      <trkpt lat="47.07399" lon="5.49392">
        <ele>208.262817</ele>
        <time>2011-04-19T11:49:24Z</time>
      </trkpt>
      <trkpt lat="47.07406" lon="5.494">
        <ele>207.782104</ele>
        <time>2011-04-19T11:49:25Z</time>
      </trkpt>
      <trkpt lat="47.07428" lon="5.49451">
        <ele>206.820679</ele>
        <time>2011-04-19T11:49:30Z</time>
      </trkpt>
      <trkpt lat="47.07441" lon="5.49474">
        <ele>205.859497</ele>
        <time>2011-04-19T11:49:33Z</time>
      </trkpt>
      <trkpt lat="47.07435" lon="5.49502">
        <ele>207.301392</ele>
        <time>2011-04-19T11:49:38Z</time>
      </trkpt>
      <trkpt lat="47.07437" lon="5.49507">
        <ele>207.301392</ele>
        <time>2011-04-19T11:49:49Z</time>
      </trkpt>
      <trkpt lat="47.07435" lon="5.49507">
        <ele>207.782104</ele>
        <time>2011-04-19T11:50:00Z</time>
      </trkpt>
      <trkpt lat="47.07439" lon="5.49482">
        <ele>207.782104</ele>
        <time>2011-04-19T11:50:06Z</time>
      </trkpt>
      <trkpt lat="47.07446" lon="5.49458">
        <ele>205.859497</ele>
        <time>2011-04-19T11:50:10Z</time>
      </trkpt>
      <trkpt lat="47.07435" lon="5.49412">
        <ele>205.859497</ele>
        <time>2011-04-19T11:50:17Z</time>
      </trkpt>
      <trkpt lat="47.07422" lon="5.49408">
        <ele>206.820679</ele>
        <time>2011-04-19T11:50:19Z</time>
      </trkpt>
      <trkpt lat="47.07398" lon="5.49389">
        <ele>208.262817</ele>
        <time>2011-04-19T11:50:23Z</time>
      </trkpt>
      <trkpt lat="47.07334" lon="5.49313">
        <ele>211.627441</ele>
        <time>2011-04-19T11:50:36Z</time>
      </trkpt>
      <trkpt lat="47.07239" lon="5.49184">
        <ele>211.627441</ele>
        <time>2011-04-19T11:50:55Z</time>
      </trkpt>
      <trkpt lat="47.07197" lon="5.49065">
        <ele>210.666016</ele>
        <time>2011-04-19T11:51:06Z</time>
      </trkpt>
      <trkpt lat="47.07176" lon="5.49015">
        <ele>209.224121</ele>
        <time>2011-04-19T11:51:11Z</time>
      </trkpt>
      <trkpt lat="47.0709" lon="5.48853">
        <ele>210.185425</ele>
        <time>2011-04-19T11:51:28Z</time>
      </trkpt>
      <trkpt lat="47.07021" lon="5.48772">
        <ele>209.704834</ele>
        <time>2011-04-19T11:51:40Z</time>
      </trkpt>
      <trkpt lat="47.06997" lon="5.48747">
        <ele>209.224121</ele>
        <time>2011-04-19T11:51:44Z</time>
      </trkpt>
      <trkpt lat="47.06976" lon="5.48715">
        <ele>207.301392</ele>
        <time>2011-04-19T11:51:48Z</time>
      </trkpt>
      <trkpt lat="47.06934" lon="5.48701">
        <ele>207.782104</ele>
        <time>2011-04-19T11:51:54Z</time>
      </trkpt>
      <trkpt lat="47.0688" lon="5.48718">
        <ele>208.743408</ele>
        <time>2011-04-19T11:52:02Z</time>
      </trkpt>
      <trkpt lat="47.06753" lon="5.48843">
        <ele>209.704834</ele>
        <time>2011-04-19T11:52:24Z</time>
      </trkpt>
      <trkpt lat="47.0671" lon="5.48838">
        <ele>210.185425</ele>
        <time>2011-04-19T11:52:31Z</time>
      </trkpt>
      <trkpt lat="47.06681" lon="5.488">
        <ele>208.743408</ele>
        <time>2011-04-19T11:52:36Z</time>
      </trkpt>
      <trkpt lat="47.06647" lon="5.4874">
        <ele>206.820679</ele>
        <time>2011-04-19T11:52:42Z</time>
      </trkpt>
      <trkpt lat="47.06639" lon="5.4864">
        <ele>204.898071</ele>
        <time>2011-04-19T11:52:50Z</time>
      </trkpt>
      <trkpt lat="47.06643" lon="5.48629">
        <ele>205.378784</ele>
        <time>2011-04-19T11:52:51Z</time>
      </trkpt>
      <trkpt lat="47.06665" lon="5.48505">
        <ele>207.782104</ele>
        <time>2011-04-19T11:53:03Z</time>
      </trkpt>
      <trkpt lat="47.06665" lon="5.48486">
        <ele>207.301392</ele>
        <time>2011-04-19T11:53:05Z</time>
      </trkpt>
      <trkpt lat="47.06639" lon="5.48448">
        <ele>206.820679</ele>
        <time>2011-04-19T11:53:11Z</time>
      </trkpt>
      <trkpt lat="47.06596" lon="5.48437">
        <ele>206.820679</ele>
        <time>2011-04-19T11:53:17Z</time>
      </trkpt>
      <trkpt lat="47.06563" lon="5.48383">
        <ele>205.378784</ele>
        <time>2011-04-19T11:53:23Z</time>
      </trkpt>
      <trkpt lat="47.06554" lon="5.48348">
        <ele>205.378784</ele>
        <time>2011-04-19T11:53:26Z</time>
      </trkpt>
      <trkpt lat="47.06527" lon="5.48299">
        <ele>204.898071</ele>
        <time>2011-04-19T11:53:31Z</time>
      </trkpt>
      <trkpt lat="47.06513" lon="5.48286">
        <ele>204.898071</ele>
        <time>2011-04-19T11:53:33Z</time>
      </trkpt>
      <trkpt lat="47.06477" lon="5.48274">
        <ele>204.41748</ele>
        <time>2011-04-19T11:53:38Z</time>
      </trkpt>
      <trkpt lat="47.0646" lon="5.48274">
        <ele>203.456177</ele>
        <time>2011-04-19T11:53:41Z</time>
      </trkpt>
      <trkpt lat="47.06378" lon="5.48242">
        <ele>201.052856</ele>
        <time>2011-04-19T11:53:59Z</time>
      </trkpt>
      <trkpt lat="47.06311" lon="5.48215">
        <ele>198.168945</ele>
        <time>2011-04-19T11:54:09Z</time>
      </trkpt>
      <trkpt lat="47.06249" lon="5.4821">
        <ele>197.20752</ele>
        <time>2011-04-19T11:54:17Z</time>
      </trkpt>
      <trkpt lat="47.06172" lon="5.48246">
        <ele>196.246338</ele>
        <time>2011-04-19T11:54:29Z</time>
      </trkpt>
      <trkpt lat="47.0607" lon="5.48299">
        <ele>194.804321</ele>
        <time>2011-04-19T11:54:47Z</time>
      </trkpt>
      <trkpt lat="47.05966" lon="5.48309">
        <ele>194.804321</ele>
        <time>2011-04-19T11:55:04Z</time>
      </trkpt>
      <trkpt lat="47.05886" lon="5.48346">
        <ele>195.284912</ele>
        <time>2011-04-19T11:55:19Z</time>
      </trkpt>
      <trkpt lat="47.05778" lon="5.48405">
        <ele>195.284912</ele>
        <time>2011-04-19T11:55:40Z</time>
      </trkpt>
      <trkpt lat="47.05731" lon="5.48375">
        <ele>194.804321</ele>
        <time>2011-04-19T11:55:49Z</time>
      </trkpt>
      <trkpt lat="47.05702" lon="5.4832">
        <ele>194.804321</ele>
        <time>2011-04-19T11:55:57Z</time>
      </trkpt>
      <trkpt lat="47.05624" lon="5.48279">
        <ele>194.32373</ele>
        <time>2011-04-19T11:56:12Z</time>
      </trkpt>
      <trkpt lat="47.05535" lon="5.48296">
        <ele>194.804321</ele>
        <time>2011-04-19T11:56:29Z</time>
      </trkpt>
      <trkpt lat="47.05416" lon="5.48338">
        <ele>194.32373</ele>
        <time>2011-04-19T11:56:51Z</time>
      </trkpt>
      <trkpt lat="47.05314" lon="5.48312">
        <ele>194.32373</ele>
        <time>2011-04-19T11:57:09Z</time>
      </trkpt>
      <trkpt lat="47.05211" lon="5.48232">
        <ele>194.32373</ele>
        <time>2011-04-19T11:57:30Z</time>
      </trkpt>
      <trkpt lat="47.05121" lon="5.48093">
        <ele>195.284912</ele>
        <time>2011-04-19T11:57:55Z</time>
      </trkpt>
      <trkpt lat="47.05087" lon="5.47992">
        <ele>193.843018</ele>
        <time>2011-04-19T11:58:10Z</time>
      </trkpt>
      <trkpt lat="47.05068" lon="5.47965">
        <ele>193.843018</ele>
        <time>2011-04-19T11:58:15Z</time>
      </trkpt>
      <trkpt lat="47.04943" lon="5.47865">
        <ele>193.362305</ele>
        <time>2011-04-19T11:58:41Z</time>
      </trkpt>
      <trkpt lat="47.04842" lon="5.47818">
        <ele>193.843018</ele>
        <time>2011-04-19T11:59:01Z</time>
      </trkpt>
      <trkpt lat="47.04698" lon="5.47764">
        <ele>193.362305</ele>
        <time>2011-04-19T11:59:28Z</time>
      </trkpt>
      <trkpt lat="47.04583" lon="5.47656">
        <ele>193.362305</ele>
        <time>2011-04-19T11:59:53Z</time>
      </trkpt>
      <trkpt lat="47.04496" lon="5.4755">
        <ele>192.881714</ele>
        <time>2011-04-19T12:00:14Z</time>
      </trkpt>
      <trkpt lat="47.04372" lon="5.47424">
        <ele>192.881714</ele>
        <time>2011-04-19T12:00:42Z</time>
      </trkpt>
      <trkpt lat="47.04288" lon="5.4736">
        <ele>192.401123</ele>
        <time>2011-04-19T12:01:00Z</time>
      </trkpt>
      <trkpt lat="47.04258" lon="5.47383">
        <ele>191.920288</ele>
        <time>2011-04-19T12:01:08Z</time>
      </trkpt>
      <trkpt lat="47.04239" lon="5.4751">
        <ele>192.401123</ele>
        <time>2011-04-19T12:01:25Z</time>
      </trkpt>
      <trkpt lat="47.04252" lon="5.4772">
        <ele>192.401123</ele>
        <time>2011-04-19T12:01:51Z</time>
      </trkpt>
      <trkpt lat="47.04294" lon="5.47897">
        <ele>192.881714</ele>
        <time>2011-04-19T12:02:14Z</time>
      </trkpt>
      <trkpt lat="47.04351" lon="5.48118">
        <ele>192.881714</ele>
        <time>2011-04-19T12:02:42Z</time>
      </trkpt>
      <trkpt lat="47.04416" lon="5.48348">
        <ele>193.362305</ele>
        <time>2011-04-19T12:03:12Z</time>
      </trkpt>
      <trkpt lat="47.04464" lon="5.48581">
        <ele>193.362305</ele>
        <time>2011-04-19T12:03:41Z</time>
      </trkpt>
      <trkpt lat="47.04475" lon="5.48742">
        <ele>193.843018</ele>
        <time>2011-04-19T12:04:00Z</time>
      </trkpt>
      <trkpt lat="47.04499" lon="5.48801">
        <ele>193.362305</ele>
        <time>2011-04-19T12:04:08Z</time>
      </trkpt>
      <trkpt lat="47.04508" lon="5.48812">
        <ele>193.362305</ele>
        <time>2011-04-19T12:04:10Z</time>
      </trkpt>
      <trkpt lat="47.04536" lon="5.48826">
        <ele>193.843018</ele>
        <time>2011-04-19T12:04:15Z</time>
      </trkpt>
      <trkpt lat="47.04565" lon="5.48829">
        <ele>193.843018</ele>
        <time>2011-04-19T12:04:20Z</time>
      </trkpt>
      <trkpt lat="47.04589" lon="5.48866">
        <ele>193.843018</ele>
        <time>2011-04-19T12:04:27Z</time>
      </trkpt>
      <trkpt lat="47.04589" lon="5.48884">
        <ele>193.843018</ele>
        <time>2011-04-19T12:04:29Z</time>
      </trkpt>
      <trkpt lat="47.04562" lon="5.49132">
        <ele>194.32373</ele>
        <time>2011-04-19T12:04:59Z</time>
      </trkpt>
      <trkpt lat="47.04527" lon="5.49285">
        <ele>193.843018</ele>
        <time>2011-04-19T12:05:18Z</time>
      </trkpt>
      <trkpt lat="47.04522" lon="5.493">
        <ele>194.32373</ele>
        <time>2011-04-19T12:05:20Z</time>
      </trkpt>
      <trkpt lat="47.04508" lon="5.49449">
        <ele>194.804321</ele>
        <time>2011-04-19T12:05:38Z</time>
      </trkpt>
      <trkpt lat="47.04506" lon="5.49525">
        <ele>195.284912</ele>
        <time>2011-04-19T12:05:54Z</time>
      </trkpt>
      <trkpt lat="47.04506" lon="5.49537">
        <ele>195.284912</ele>
        <time>2011-04-19T12:06:06Z</time>
      </trkpt>
      <trkpt lat="47.04502" lon="5.49586">
        <ele>195.284912</ele>
        <time>2011-04-19T12:06:19Z</time>
      </trkpt>
      <trkpt lat="47.045" lon="5.49608">
        <ele>195.765625</ele>
        <time>2011-04-19T12:06:23Z</time>
      </trkpt>
      <trkpt lat="47.04515" lon="5.49645">
        <ele>195.765625</ele>
        <time>2011-04-19T12:06:30Z</time>
      </trkpt>
      <trkpt lat="47.04575" lon="5.49686">
        <ele>198.649536</ele>
        <time>2011-04-19T12:06:49Z</time>
      </trkpt>
      <trkpt lat="47.04565" lon="5.49733">
        <ele>199.130127</ele>
        <time>2011-04-19T12:07:00Z</time>
      </trkpt>
      <trkpt lat="47.04527" lon="5.49846">
        <ele>199.130127</ele>
        <time>2011-04-19T12:07:17Z</time>
      </trkpt>
      <trkpt lat="47.04511" lon="5.49955">
        <ele>198.649536</ele>
        <time>2011-04-19T12:07:30Z</time>
      </trkpt>
      <trkpt lat="47.04548" lon="5.5005">
        <ele>199.130127</ele>
        <time>2011-04-19T12:07:44Z</time>
      </trkpt>
      <trkpt lat="47.04628" lon="5.50207">
        <ele>201.052856</ele>
        <time>2011-04-19T12:08:09Z</time>
      </trkpt>
      <trkpt lat="47.04663" lon="5.5028">
        <ele>201.533569</ele>
        <time>2011-04-19T12:08:21Z</time>
      </trkpt>
      <trkpt lat="47.04667" lon="5.50356">
        <ele>202.494873</ele>
        <time>2011-04-19T12:08:31Z</time>
      </trkpt>
      <trkpt lat="47.04606" lon="5.5052">
        <ele>202.975464</ele>
        <time>2011-04-19T12:08:54Z</time>
      </trkpt>
      <trkpt lat="47.04522" lon="5.50632">
        <ele>202.975464</ele>
        <time>2011-04-19T12:09:16Z</time>
      </trkpt>
      <trkpt lat="47.04466" lon="5.50709">
        <ele>202.014282</ele>
        <time>2011-04-19T12:09:30Z</time>
      </trkpt>
      <trkpt lat="47.04397" lon="5.50793">
        <ele>200.572266</ele>
        <time>2011-04-19T12:09:44Z</time>
      </trkpt>
      <trkpt lat="47.04308" lon="5.50837">
        <ele>199.61084</ele>
        <time>2011-04-19T12:09:59Z</time>
      </trkpt>
      <trkpt lat="47.04221" lon="5.50874">
        <ele>198.649536</ele>
        <time>2011-04-19T12:10:13Z</time>
      </trkpt>
      <trkpt lat="47.04172" lon="5.50959">
        <ele>198.649536</ele>
        <time>2011-04-19T12:10:25Z</time>
      </trkpt>
      <trkpt lat="47.04101" lon="5.51129">
        <ele>199.61084</ele>
        <time>2011-04-19T12:10:48Z</time>
      </trkpt>
      <trkpt lat="47.04006" lon="5.51261">
        <ele>201.052856</ele>
        <time>2011-04-19T12:11:11Z</time>
      </trkpt>
      <trkpt lat="47.03959" lon="5.51391">
        <ele>200.091675</ele>
        <time>2011-04-19T12:11:28Z</time>
      </trkpt>
      <trkpt lat="47.03956" lon="5.51534">
        <ele>199.61084</ele>
        <time>2011-04-19T12:11:44Z</time>
      </trkpt>
      <trkpt lat="47.03957" lon="5.51704">
        <ele>199.61084</ele>
        <time>2011-04-19T12:12:04Z</time>
      </trkpt>
      <trkpt lat="47.03959" lon="5.51746">
        <ele>200.572266</ele>
        <time>2011-04-19T12:12:10Z</time>
      </trkpt>
      <trkpt lat="47.03949" lon="5.51833">
        <ele>200.091675</ele>
        <time>2011-04-19T12:12:21Z</time>
      </trkpt>
      <trkpt lat="47.03953" lon="5.51869">
        <ele>200.572266</ele>
        <time>2011-04-19T12:12:26Z</time>
      </trkpt>
      <trkpt lat="47.03975" lon="5.51918">
        <ele>203.456177</ele>
        <time>2011-04-19T12:12:35Z</time>
      </trkpt>
      <trkpt lat="47.0402" lon="5.51961">
        <ele>206.820679</ele>
        <time>2011-04-19T12:12:48Z</time>
      </trkpt>
      <trkpt lat="47.04087" lon="5.52012">
        <ele>209.704834</ele>
        <time>2011-04-19T12:13:05Z</time>
      </trkpt>
      <trkpt lat="47.04166" lon="5.52091">
        <ele>212.588623</ele>
        <time>2011-04-19T12:13:26Z</time>
      </trkpt>
      <trkpt lat="47.04237" lon="5.52183">
        <ele>215.472656</ele>
        <time>2011-04-19T12:13:47Z</time>
      </trkpt>
      <trkpt lat="47.04249" lon="5.52194">
        <ele>215.953247</ele>
        <time>2011-04-19T12:13:50Z</time>
      </trkpt>
      <trkpt lat="47.04276" lon="5.52207">
        <ele>216.914673</ele>
        <time>2011-04-19T12:13:56Z</time>
      </trkpt>
      <trkpt lat="47.04349" lon="5.52216">
        <ele>219.317993</ele>
        <time>2011-04-19T12:14:14Z</time>
      </trkpt>
      <trkpt lat="47.04356" lon="5.52241">
        <ele>220.759888</ele>
        <time>2011-04-19T12:14:24Z</time>
      </trkpt>
      <trkpt lat="47.04332" lon="5.52299">
        <ele>222.201782</ele>
        <time>2011-04-19T12:14:36Z</time>
      </trkpt>
      <trkpt lat="47.04271" lon="5.52422">
        <ele>223.163208</ele>
        <time>2011-04-19T12:14:58Z</time>
      </trkpt>
      <trkpt lat="47.04204" lon="5.52552">
        <ele>223.643799</ele>
        <time>2011-04-19T12:15:21Z</time>
      </trkpt>
      <trkpt lat="47.04136" lon="5.52687">
        <ele>224.124512</ele>
        <time>2011-04-19T12:15:43Z</time>
      </trkpt>
      <trkpt lat="47.04062" lon="5.52825">
        <ele>224.605225</ele>
        <time>2011-04-19T12:16:04Z</time>
      </trkpt>
      <trkpt lat="47.03985" lon="5.52933">
        <ele>221.721191</ele>
        <time>2011-04-19T12:16:21Z</time>
      </trkpt>
      <trkpt lat="47.03919" lon="5.5304">
        <ele>220.759888</ele>
        <time>2011-04-19T12:16:34Z</time>
      </trkpt>
      <trkpt lat="47.03887" lon="5.53106">
        <ele>223.643799</ele>
        <time>2011-04-19T12:16:44Z</time>
      </trkpt>
      <trkpt lat="47.03822" lon="5.53257">
        <ele>224.605225</ele>
        <time>2011-04-19T12:17:05Z</time>
      </trkpt>
      <trkpt lat="47.03747" lon="5.53432">
        <ele>225.085938</ele>
        <time>2011-04-19T12:17:29Z</time>
      </trkpt>
      <trkpt lat="47.0367" lon="5.53594">
        <ele>222.682495</ele>
        <time>2011-04-19T12:17:50Z</time>
      </trkpt>
      <trkpt lat="47.0362" lon="5.53669">
        <ele>219.317993</ele>
        <time>2011-04-19T12:17:58Z</time>
      </trkpt>
      <trkpt lat="47.03581" lon="5.53788">
        <ele>216.43396</ele>
        <time>2011-04-19T12:18:07Z</time>
      </trkpt>
      <trkpt lat="47.03573" lon="5.53864">
        <ele>212.588623</ele>
        <time>2011-04-19T12:18:12Z</time>
      </trkpt>
      <trkpt lat="47.03569" lon="5.53914">
        <ele>211.627441</ele>
        <time>2011-04-19T12:18:15Z</time>
      </trkpt>
      <trkpt lat="47.03566" lon="5.53964">
        <ele>209.704834</ele>
        <time>2011-04-19T12:18:18Z</time>
      </trkpt>
      <trkpt lat="47.03563" lon="5.54117">
        <ele>208.743408</ele>
        <time>2011-04-19T12:18:29Z</time>
      </trkpt>
      <trkpt lat="47.0356" lon="5.54325">
        <ele>209.224121</ele>
        <time>2011-04-19T12:18:48Z</time>
      </trkpt>
      <trkpt lat="47.03538" lon="5.54448">
        <ele>212.588623</ele>
        <time>2011-04-19T12:19:02Z</time>
      </trkpt>
      <trkpt lat="47.0351" lon="5.54503">
        <ele>215.472656</ele>
        <time>2011-04-19T12:19:11Z</time>
      </trkpt>
      <trkpt lat="47.03474" lon="5.54538">
        <ele>218.83728</ele>
        <time>2011-04-19T12:19:20Z</time>
      </trkpt>
      <trkpt lat="47.03416" lon="5.54565">
        <ele>221.721191</ele>
        <time>2011-04-19T12:19:33Z</time>
      </trkpt>
      <trkpt lat="47.03369" lon="5.54574">
        <ele>225.085938</ele>
        <time>2011-04-19T12:19:44Z</time>
      </trkpt>
      <trkpt lat="47.03282" lon="5.54597">
        <ele>227.008545</ele>
        <time>2011-04-19T12:20:07Z</time>
      </trkpt>
      <trkpt lat="47.03229" lon="5.54648">
        <ele>227.489136</ele>
        <time>2011-04-19T12:20:24Z</time>
      </trkpt>
      <trkpt lat="47.03168" lon="5.54768">
        <ele>227.489136</ele>
        <time>2011-04-19T12:20:49Z</time>
      </trkpt>
      <trkpt lat="47.03101" lon="5.54895">
        <ele>227.489136</ele>
        <time>2011-04-19T12:21:09Z</time>
      </trkpt>
      <trkpt lat="47.03024" lon="5.55035">
        <ele>228.450439</ele>
        <time>2011-04-19T12:21:31Z</time>
      </trkpt>
      <trkpt lat="47.02997" lon="5.55089">
        <ele>228.450439</ele>
        <time>2011-04-19T12:21:39Z</time>
      </trkpt>
      <trkpt lat="47.02929" lon="5.5521">
        <ele>227.969727</ele>
        <time>2011-04-19T12:21:57Z</time>
      </trkpt>
      <trkpt lat="47.02838" lon="5.55345">
        <ele>228.450439</ele>
        <time>2011-04-19T12:22:19Z</time>
      </trkpt>
      <trkpt lat="47.02752" lon="5.55491">
        <ele>227.489136</ele>
        <time>2011-04-19T12:22:41Z</time>
      </trkpt>
      <trkpt lat="47.02707" lon="5.55663">
        <ele>225.566528</ele>
        <time>2011-04-19T12:22:59Z</time>
      </trkpt>
      <trkpt lat="47.02705" lon="5.55673">
        <ele>225.566528</ele>
        <time>2011-04-19T12:23:00Z</time>
      </trkpt>
      <trkpt lat="47.02691" lon="5.55702">
        <ele>226.047119</ele>
        <time>2011-04-19T12:23:04Z</time>
      </trkpt>
      <trkpt lat="47.02617" lon="5.5582">
        <ele>226.047119</ele>
        <time>2011-04-19T12:23:22Z</time>
      </trkpt>
      <trkpt lat="47.02562" lon="5.55948">
        <ele>228.931152</ele>
        <time>2011-04-19T12:23:40Z</time>
      </trkpt>
      <trkpt lat="47.02519" lon="5.56133">
        <ele>229.411743</ele>
        <time>2011-04-19T12:24:03Z</time>
      </trkpt>
      <trkpt lat="47.02499" lon="5.56285">
        <ele>228.450439</ele>
        <time>2011-04-19T12:24:20Z</time>
      </trkpt>
      <trkpt lat="47.02461" lon="5.56322">
        <ele>227.489136</ele>
        <time>2011-04-19T12:24:28Z</time>
      </trkpt>
      <trkpt lat="47.0243" lon="5.56321">
        <ele>226.527832</ele>
        <time>2011-04-19T12:24:32Z</time>
      </trkpt>
      <trkpt lat="47.02401" lon="5.56337">
        <ele>225.085938</ele>
        <time>2011-04-19T12:24:36Z</time>
      </trkpt>
      <trkpt lat="47.02356" lon="5.56421">
        <ele>221.721191</ele>
        <time>2011-04-19T12:24:44Z</time>
      </trkpt>
      <trkpt lat="47.02327" lon="5.56542">
        <ele>221.240601</ele>
        <time>2011-04-19T12:24:55Z</time>
      </trkpt>
      <trkpt lat="47.02321" lon="5.56653">
        <ele>224.605225</ele>
        <time>2011-04-19T12:25:09Z</time>
      </trkpt>
      <trkpt lat="47.02291" lon="5.56822">
        <ele>227.008545</ele>
        <time>2011-04-19T12:25:31Z</time>
      </trkpt>
      <trkpt lat="47.02235" lon="5.56951">
        <ele>224.605225</ele>
        <time>2011-04-19T12:25:47Z</time>
      </trkpt>
      <trkpt lat="47.0218" lon="5.57093">
        <ele>225.085938</ele>
        <time>2011-04-19T12:26:03Z</time>
      </trkpt>
      <trkpt lat="47.02168" lon="5.57273">
        <ele>228.450439</ele>
        <time>2011-04-19T12:26:24Z</time>
      </trkpt>
      <trkpt lat="47.02164" lon="5.57499">
        <ele>228.450439</ele>
        <time>2011-04-19T12:26:49Z</time>
      </trkpt>
      <trkpt lat="47.02134" lon="5.57606">
        <ele>228.931152</ele>
        <time>2011-04-19T12:27:01Z</time>
      </trkpt>
      <trkpt lat="47.02055" lon="5.57809">
        <ele>227.969727</ele>
        <time>2011-04-19T12:27:25Z</time>
      </trkpt>
      <trkpt lat="47.01979" lon="5.57935">
        <ele>225.085938</ele>
        <time>2011-04-19T12:27:41Z</time>
      </trkpt>
      <trkpt lat="47.01865" lon="5.58101">
        <ele>222.682495</ele>
        <time>2011-04-19T12:28:03Z</time>
      </trkpt>
      <trkpt lat="47.0185" lon="5.58128">
        <ele>222.201782</ele>
        <time>2011-04-19T12:28:06Z</time>
      </trkpt>
      <trkpt lat="47.01814" lon="5.58147">
        <ele>220.279175</ele>
        <time>2011-04-19T12:28:11Z</time>
      </trkpt>
      <trkpt lat="47.01769" lon="5.58131">
        <ele>217.395386</ele>
        <time>2011-04-19T12:28:16Z</time>
      </trkpt>
      <trkpt lat="47.0174" lon="5.58156">
        <ele>216.43396</ele>
        <time>2011-04-19T12:28:21Z</time>
      </trkpt>
      <trkpt lat="47.01738" lon="5.58166">
        <ele>215.953247</ele>
        <time>2011-04-19T12:28:22Z</time>
      </trkpt>
      <trkpt lat="47.01723" lon="5.58358">
        <ele>214.51123</ele>
        <time>2011-04-19T12:28:41Z</time>
      </trkpt>
      <trkpt lat="47.01707" lon="5.58507">
        <ele>215.472656</ele>
        <time>2011-04-19T12:28:57Z</time>
      </trkpt>
      <trkpt lat="47.01675" lon="5.58642">
        <ele>215.472656</ele>
        <time>2011-04-19T12:29:12Z</time>
      </trkpt>
      <trkpt lat="47.01659" lon="5.58906">
        <ele>215.472656</ele>
        <time>2011-04-19T12:29:39Z</time>
      </trkpt>
      <trkpt lat="47.01668" lon="5.59046">
        <ele>215.472656</ele>
        <time>2011-04-19T12:29:53Z</time>
      </trkpt>
      <trkpt lat="47.01691" lon="5.5917">
        <ele>214.991943</ele>
        <time>2011-04-19T12:30:06Z</time>
      </trkpt>
      <trkpt lat="47.01673" lon="5.59227">
        <ele>215.953247</ele>
        <time>2011-04-19T12:30:13Z</time>
      </trkpt>
      <trkpt lat="47.01667" lon="5.59232">
        <ele>215.953247</ele>
        <time>2011-04-19T12:30:14Z</time>
      </trkpt>
      <trkpt lat="47.01606" lon="5.59275">
        <ele>215.472656</ele>
        <time>2011-04-19T12:30:24Z</time>
      </trkpt>
      <trkpt lat="47.01587" lon="5.59285">
        <ele>216.43396</ele>
        <time>2011-04-19T12:30:27Z</time>
      </trkpt>
      <trkpt lat="47.01551" lon="5.5932">
        <ele>215.472656</ele>
        <time>2011-04-19T12:30:34Z</time>
      </trkpt>
      <trkpt lat="47.01547" lon="5.59361">
        <ele>215.953247</ele>
        <time>2011-04-19T12:30:39Z</time>
      </trkpt>
      <trkpt lat="47.01569" lon="5.59452">
        <ele>215.953247</ele>
        <time>2011-04-19T12:30:50Z</time>
      </trkpt>
      <trkpt lat="47.01572" lon="5.59503">
        <ele>215.953247</ele>
        <time>2011-04-19T12:30:56Z</time>
      </trkpt>
      <trkpt lat="47.0158" lon="5.59538">
        <ele>216.914673</ele>
        <time>2011-04-19T12:31:01Z</time>
      </trkpt>
      <trkpt lat="47.01611" lon="5.59612">
        <ele>220.759888</ele>
        <time>2011-04-19T12:31:15Z</time>
      </trkpt>
      <trkpt lat="47.01637" lon="5.59671">
        <ele>223.643799</ele>
        <time>2011-04-19T12:31:27Z</time>
      </trkpt>
      <trkpt lat="47.01666" lon="5.59741">
        <ele>227.008545</ele>
        <time>2011-04-19T12:31:41Z</time>
      </trkpt>
      <trkpt lat="47.01694" lon="5.5981">
        <ele>229.892334</ele>
        <time>2011-04-19T12:31:54Z</time>
      </trkpt>
      <trkpt lat="47.01715" lon="5.59888">
        <ele>233.25708</ele>
        <time>2011-04-19T12:32:07Z</time>
      </trkpt>
      <trkpt lat="47.01724" lon="5.60037">
        <ele>235.179688</ele>
        <time>2011-04-19T12:32:28Z</time>
      </trkpt>
      <trkpt lat="47.01728" lon="5.60101">
        <ele>235.660278</ele>
        <time>2011-04-19T12:32:37Z</time>
      </trkpt>
      <trkpt lat="47.01739" lon="5.60253">
        <ele>235.179688</ele>
        <time>2011-04-19T12:32:59Z</time>
      </trkpt>
      <trkpt lat="47.01751" lon="5.60463">
        <ele>235.179688</ele>
        <time>2011-04-19T12:33:26Z</time>
      </trkpt>
      <trkpt lat="47.01765" lon="5.60698">
        <ele>235.179688</ele>
        <time>2011-04-19T12:33:52Z</time>
      </trkpt>
      <trkpt lat="47.01779" lon="5.60906">
        <ele>232.776489</ele>
        <time>2011-04-19T12:34:15Z</time>
      </trkpt>
      <trkpt lat="47.01784" lon="5.60974">
        <ele>230.373047</ele>
        <time>2011-04-19T12:34:21Z</time>
      </trkpt>
      <trkpt lat="47.0179" lon="5.61065">
        <ele>227.489136</ele>
        <time>2011-04-19T12:34:28Z</time>
      </trkpt>
      <trkpt lat="47.01807" lon="5.61289">
        <ele>225.085938</ele>
        <time>2011-04-19T12:34:46Z</time>
      </trkpt>
      <trkpt lat="47.01815" lon="5.61401">
        <ele>228.450439</ele>
        <time>2011-04-19T12:34:59Z</time>
      </trkpt>
      <trkpt lat="47.01821" lon="5.61478">
        <ele>231.334351</ele>
        <time>2011-04-19T12:35:09Z</time>
      </trkpt>
      <trkpt lat="47.01823" lon="5.61525">
        <ele>233.25708</ele>
        <time>2011-04-19T12:35:15Z</time>
      </trkpt>
      <trkpt lat="47.01827" lon="5.61693">
        <ele>236.140991</ele>
        <time>2011-04-19T12:35:35Z</time>
      </trkpt>
      <trkpt lat="47.01844" lon="5.61883">
        <ele>239.024902</ele>
        <time>2011-04-19T12:35:57Z</time>
      </trkpt>
      <trkpt lat="47.01897" lon="5.62074">
        <ele>239.986206</ele>
        <time>2011-04-19T12:36:19Z</time>
      </trkpt>
      <trkpt lat="47.01959" lon="5.62249">
        <ele>238.063599</ele>
        <time>2011-04-19T12:36:38Z</time>
      </trkpt>
      <trkpt lat="47.02056" lon="5.62449">
        <ele>236.140991</ele>
        <time>2011-04-19T12:37:00Z</time>
      </trkpt>
      <trkpt lat="47.02111" lon="5.62603">
        <ele>235.179688</ele>
        <time>2011-04-19T12:37:15Z</time>
      </trkpt>
      <trkpt lat="47.02103" lon="5.62748">
        <ele>237.102295</ele>
        <time>2011-04-19T12:37:30Z</time>
      </trkpt>
      <trkpt lat="47.02095" lon="5.62793">
        <ele>237.102295</ele>
        <time>2011-04-19T12:37:35Z</time>
      </trkpt>
      <trkpt lat="47.02078" lon="5.6291">
        <ele>240.947632</ele>
        <time>2011-04-19T12:37:50Z</time>
      </trkpt>
      <trkpt lat="47.02076" lon="5.62923">
        <ele>240.947632</ele>
        <time>2011-04-19T12:37:52Z</time>
      </trkpt>
      <trkpt lat="47.02059" lon="5.63036">
        <ele>242.870239</ele>
        <time>2011-04-19T12:38:08Z</time>
      </trkpt>
      <trkpt lat="47.02055" lon="5.63198">
        <ele>244.792847</ele>
        <time>2011-04-19T12:38:29Z</time>
      </trkpt>
      <trkpt lat="47.0207" lon="5.63439">
        <ele>243.35083</ele>
        <time>2011-04-19T12:38:55Z</time>
      </trkpt>
      <trkpt lat="47.02078" lon="5.6362">
        <ele>241.428223</ele>
        <time>2011-04-19T12:39:13Z</time>
      </trkpt>
      <trkpt lat="47.02101" lon="5.63782">
        <ele>239.024902</ele>
        <time>2011-04-19T12:39:28Z</time>
      </trkpt>
      <trkpt lat="47.02102" lon="5.63825">
        <ele>238.544312</ele>
        <time>2011-04-19T12:39:32Z</time>
      </trkpt>
      <trkpt lat="47.02066" lon="5.63946">
        <ele>235.179688</ele>
        <time>2011-04-19T12:39:45Z</time>
      </trkpt>
      <trkpt lat="47.02054" lon="5.63969">
        <ele>234.218384</ele>
        <time>2011-04-19T12:39:48Z</time>
      </trkpt>
      <trkpt lat="47.01994" lon="5.64027">
        <ele>231.334351</ele>
        <time>2011-04-19T12:39:57Z</time>
      </trkpt>
      <trkpt lat="47.0198" lon="5.64039">
        <ele>230.373047</ele>
        <time>2011-04-19T12:39:59Z</time>
      </trkpt>
      <trkpt lat="47.01943" lon="5.6409">
        <ele>227.489136</ele>
        <time>2011-04-19T12:40:05Z</time>
      </trkpt>
      <trkpt lat="47.01914" lon="5.64128">
        <ele>224.605225</ele>
        <time>2011-04-19T12:40:11Z</time>
      </trkpt>
      <trkpt lat="47.01906" lon="5.64138">
        <ele>224.605225</ele>
        <time>2011-04-19T12:40:13Z</time>
      </trkpt>
      <trkpt lat="47.01822" lon="5.64181">
        <ele>222.682495</ele>
        <time>2011-04-19T12:40:28Z</time>
      </trkpt>
      <trkpt lat="47.0181" lon="5.64183">
        <ele>222.682495</ele>
        <time>2011-04-19T12:40:30Z</time>
      </trkpt>
      <trkpt lat="47.01786" lon="5.64176">
        <ele>222.682495</ele>
        <time>2011-04-19T12:40:34Z</time>
      </trkpt>
      <trkpt lat="47.01775" lon="5.6417">
        <ele>223.163208</ele>
        <time>2011-04-19T12:40:36Z</time>
      </trkpt>
      <trkpt lat="47.01745" lon="5.64171">
        <ele>222.201782</ele>
        <time>2011-04-19T12:40:41Z</time>
      </trkpt>
      <trkpt lat="47.01725" lon="5.64171">
        <ele>221.721191</ele>
        <time>2011-04-19T12:40:44Z</time>
      </trkpt>
      <trkpt lat="47.01646" lon="5.64214">
        <ele>222.682495</ele>
        <time>2011-04-19T12:40:57Z</time>
      </trkpt>
      <trkpt lat="47.01604" lon="5.6424">
        <ele>222.201782</ele>
        <time>2011-04-19T12:41:04Z</time>
      </trkpt>
      <trkpt lat="47.01527" lon="5.64265">
        <ele>222.682495</ele>
        <time>2011-04-19T12:41:16Z</time>
      </trkpt>
      <trkpt lat="47.01497" lon="5.64309">
        <ele>222.201782</ele>
        <time>2011-04-19T12:41:23Z</time>
      </trkpt>
      <trkpt lat="47.01452" lon="5.64477">
        <ele>221.721191</ele>
        <time>2011-04-19T12:41:42Z</time>
      </trkpt>
      <trkpt lat="47.01373" lon="5.64604">
        <ele>222.201782</ele>
        <time>2011-04-19T12:42:00Z</time>
      </trkpt>
      <trkpt lat="47.01253" lon="5.64821">
        <ele>222.201782</ele>
        <time>2011-04-19T12:42:29Z</time>
      </trkpt>
      <trkpt lat="47.01153" lon="5.65061">
        <ele>222.201782</ele>
        <time>2011-04-19T12:42:57Z</time>
      </trkpt>
      <trkpt lat="47.01057" lon="5.65234">
        <ele>222.682495</ele>
        <time>2011-04-19T12:43:19Z</time>
      </trkpt>
      <trkpt lat="47.01012" lon="5.65291">
        <ele>222.682495</ele>
        <time>2011-04-19T12:43:28Z</time>
      </trkpt>
      <trkpt lat="47.00849" lon="5.65471">
        <ele>223.163208</ele>
        <time>2011-04-19T12:43:58Z</time>
      </trkpt>
      <trkpt lat="47.00785" lon="5.65581">
        <ele>223.163208</ele>
        <time>2011-04-19T12:44:13Z</time>
      </trkpt>
      <trkpt lat="47.00728" lon="5.65814">
        <ele>222.682495</ele>
        <time>2011-04-19T12:44:37Z</time>
      </trkpt>
      <trkpt lat="47.00653" lon="5.66081">
        <ele>223.163208</ele>
        <time>2011-04-19T12:45:04Z</time>
      </trkpt>
      <trkpt lat="47.00571" lon="5.66341">
        <ele>223.163208</ele>
        <time>2011-04-19T12:45:31Z</time>
      </trkpt>
      <trkpt lat="47.00493" lon="5.66575">
        <ele>223.643799</ele>
        <time>2011-04-19T12:45:56Z</time>
      </trkpt>
      <trkpt lat="47.0043" lon="5.66641">
        <ele>224.124512</ele>
        <time>2011-04-19T12:46:07Z</time>
      </trkpt>
      <trkpt lat="47.00309" lon="5.66713">
        <ele>226.047119</ele>
        <time>2011-04-19T12:46:27Z</time>
      </trkpt>
      <trkpt lat="47.00183" lon="5.66814">
        <ele>225.566528</ele>
        <time>2011-04-19T12:46:49Z</time>
      </trkpt>
      <trkpt lat="47.00093" lon="5.66888">
        <ele>223.643799</ele>
        <time>2011-04-19T12:47:03Z</time>
      </trkpt>
      <trkpt lat="46.99987" lon="5.66907">
        <ele>225.566528</ele>
        <time>2011-04-19T12:47:18Z</time>
      </trkpt>
      <trkpt lat="46.99895" lon="5.66917">
        <ele>223.643799</ele>
        <time>2011-04-19T12:47:31Z</time>
      </trkpt>
      <trkpt lat="46.99856" lon="5.66887">
        <ele>223.163208</ele>
        <time>2011-04-19T12:47:37Z</time>
      </trkpt>
      <trkpt lat="46.99794" lon="5.66792">
        <ele>223.163208</ele>
        <time>2011-04-19T12:47:50Z</time>
      </trkpt>
      <trkpt lat="46.99776" lon="5.6675">
        <ele>223.163208</ele>
        <time>2011-04-19T12:47:55Z</time>
      </trkpt>
      <trkpt lat="46.99756" lon="5.66663">
        <ele>222.682495</ele>
        <time>2011-04-19T12:48:04Z</time>
      </trkpt>
      <trkpt lat="46.99718" lon="5.66627">
        <ele>223.643799</ele>
        <time>2011-04-19T12:48:11Z</time>
      </trkpt>
      <trkpt lat="46.99604" lon="5.66621">
        <ele>223.643799</ele>
        <time>2011-04-19T12:48:29Z</time>
      </trkpt>
      <trkpt lat="46.99501" lon="5.66625">
        <ele>224.605225</ele>
        <time>2011-04-19T12:48:48Z</time>
      </trkpt>
      <trkpt lat="46.99439" lon="5.66644">
        <ele>224.124512</ele>
        <time>2011-04-19T12:49:05Z</time>
      </trkpt>
      <trkpt lat="46.99419" lon="5.66656">
        <ele>224.124512</ele>
        <time>2011-04-19T12:49:19Z</time>
      </trkpt>
      <trkpt lat="46.99362" lon="5.66674">
        <ele>223.643799</ele>
        <time>2011-04-19T12:49:35Z</time>
      </trkpt>
      <trkpt lat="46.99262" lon="5.66708">
        <ele>223.643799</ele>
        <time>2011-04-19T12:49:57Z</time>
      </trkpt>
      <trkpt lat="46.99149" lon="5.66749">
        <ele>224.124512</ele>
        <time>2011-04-19T12:50:18Z</time>
      </trkpt>
      <trkpt lat="46.99137" lon="5.66752">
        <ele>224.124512</ele>
        <time>2011-04-19T12:50:20Z</time>
      </trkpt>
      <trkpt lat="46.99111" lon="5.6674">
        <ele>224.605225</ele>
        <time>2011-04-19T12:50:25Z</time>
      </trkpt>
      <trkpt lat="46.9906" lon="5.66686">
        <ele>224.605225</ele>
        <time>2011-04-19T12:50:36Z</time>
      </trkpt>
      <trkpt lat="46.99027" lon="5.66677">
        <ele>224.124512</ele>
        <time>2011-04-19T12:50:43Z</time>
      </trkpt>
      <trkpt lat="46.98895" lon="5.66712">
        <ele>224.124512</ele>
        <time>2011-04-19T12:51:07Z</time>
      </trkpt>
      <trkpt lat="46.9879" lon="5.66743">
        <ele>226.527832</ele>
        <time>2011-04-19T12:51:26Z</time>
      </trkpt>
      <trkpt lat="46.98721" lon="5.6674">
        <ele>229.892334</ele>
        <time>2011-04-19T12:51:40Z</time>
      </trkpt>
      <trkpt lat="46.98629" lon="5.66756">
        <ele>231.814941</ele>
        <time>2011-04-19T12:51:58Z</time>
      </trkpt>
      <trkpt lat="46.98618" lon="5.66764">
        <ele>231.334351</ele>
        <time>2011-04-19T12:52:00Z</time>
      </trkpt>
      <trkpt lat="46.98562" lon="5.66855">
        <ele>229.411743</ele>
        <time>2011-04-19T12:52:12Z</time>
      </trkpt>
      <trkpt lat="46.98547" lon="5.6688">
        <ele>229.411743</ele>
        <time>2011-04-19T12:52:15Z</time>
      </trkpt>
      <trkpt lat="46.985" lon="5.66921">
        <ele>230.373047</ele>
        <time>2011-04-19T12:52:23Z</time>
      </trkpt>
      <trkpt lat="46.98482" lon="5.66927">
        <ele>230.85376</ele>
        <time>2011-04-19T12:52:26Z</time>
      </trkpt>
      <trkpt lat="46.98439" lon="5.66932">
        <ele>232.776489</ele>
        <time>2011-04-19T12:52:34Z</time>
      </trkpt>
      <trkpt lat="46.98414" lon="5.66939">
        <ele>234.218384</ele>
        <time>2011-04-19T12:52:40Z</time>
      </trkpt>
      <trkpt lat="46.98351" lon="5.66943">
        <ele>237.102295</ele>
        <time>2011-04-19T12:52:53Z</time>
      </trkpt>
      <trkpt lat="46.98291" lon="5.66948">
        <ele>239.024902</ele>
        <time>2011-04-19T12:53:07Z</time>
      </trkpt>
      <trkpt lat="46.98235" lon="5.66952">
        <ele>241.428223</ele>
        <time>2011-04-19T12:53:20Z</time>
      </trkpt>
      <trkpt lat="46.98157" lon="5.66961">
        <ele>244.312256</ele>
        <time>2011-04-19T12:53:38Z</time>
      </trkpt>
      <trkpt lat="46.98073" lon="5.66973">
        <ele>246.234863</ele>
        <time>2011-04-19T12:53:56Z</time>
      </trkpt>
      <trkpt lat="46.97983" lon="5.66983">
        <ele>248.157593</ele>
        <time>2011-04-19T12:54:15Z</time>
      </trkpt>
      <trkpt lat="46.97874" lon="5.66994">
        <ele>249.599487</ele>
        <time>2011-04-19T12:54:36Z</time>
      </trkpt>
      <trkpt lat="46.97765" lon="5.67005">
        <ele>252.963989</ele>
        <time>2011-04-19T12:54:56Z</time>
      </trkpt>
      <trkpt lat="46.97691" lon="5.67014">
        <ele>254.406006</ele>
        <time>2011-04-19T12:55:10Z</time>
      </trkpt>
      <trkpt lat="46.97662" lon="5.67022">
        <ele>254.406006</ele>
        <time>2011-04-19T12:55:16Z</time>
      </trkpt>
      <trkpt lat="46.97608" lon="5.67023">
        <ele>254.406006</ele>
        <time>2011-04-19T12:55:24Z</time>
      </trkpt>
      <trkpt lat="46.97491" lon="5.67005">
        <ele>253.925415</ele>
        <time>2011-04-19T12:55:39Z</time>
      </trkpt>
      <trkpt lat="46.97382" lon="5.66976">
        <ele>252.963989</ele>
        <time>2011-04-19T12:55:54Z</time>
      </trkpt>
      <trkpt lat="46.97306" lon="5.66957">
        <ele>252.002808</ele>
        <time>2011-04-19T12:56:03Z</time>
      </trkpt>
      <trkpt lat="46.97297" lon="5.66955">
        <ele>251.522095</ele>
        <time>2011-04-19T12:56:04Z</time>
      </trkpt>
      <trkpt lat="46.97279" lon="5.66953">
        <ele>250.560791</ele>
        <time>2011-04-19T12:56:06Z</time>
      </trkpt>
      <trkpt lat="46.97198" lon="5.66946">
        <ele>248.638184</ele>
        <time>2011-04-19T12:56:15Z</time>
      </trkpt>
      <trkpt lat="46.97106" lon="5.66953">
        <ele>244.312256</ele>
        <time>2011-04-19T12:56:24Z</time>
      </trkpt>
      <trkpt lat="46.97065" lon="5.66948">
        <ele>242.870239</ele>
        <time>2011-04-19T12:56:28Z</time>
      </trkpt>
      <trkpt lat="46.97032" lon="5.66948">
        <ele>241.428223</ele>
        <time>2011-04-19T12:56:31Z</time>
      </trkpt>
      <trkpt lat="46.96936" lon="5.66938">
        <ele>240.467041</ele>
        <time>2011-04-19T12:56:42Z</time>
      </trkpt>
      <trkpt lat="46.96865" lon="5.66924">
        <ele>243.831543</ele>
        <time>2011-04-19T12:56:54Z</time>
      </trkpt>
      <trkpt lat="46.9686" lon="5.66924">
        <ele>244.312256</ele>
        <time>2011-04-19T12:56:55Z</time>
      </trkpt>
      <trkpt lat="46.96824" lon="5.66937">
        <ele>246.715454</ele>
        <time>2011-04-19T12:57:04Z</time>
      </trkpt>
      <trkpt lat="46.96802" lon="5.66957">
        <ele>248.638184</ele>
        <time>2011-04-19T12:57:11Z</time>
      </trkpt>
      <trkpt lat="46.96746" lon="5.66982">
        <ele>251.041382</ele>
        <time>2011-04-19T12:57:21Z</time>
      </trkpt>
      <trkpt lat="46.96729" lon="5.66989">
        <ele>252.002808</ele>
        <time>2011-04-19T12:57:24Z</time>
      </trkpt>
      <trkpt lat="46.96704" lon="5.67002">
        <ele>252.002808</ele>
        <time>2011-04-19T12:57:29Z</time>
      </trkpt>
      <trkpt lat="46.96662" lon="5.67008">
        <ele>251.522095</ele>
        <time>2011-04-19T12:57:35Z</time>
      </trkpt>
      <trkpt lat="46.96559" lon="5.67004">
        <ele>249.118774</ele>
        <time>2011-04-19T12:57:48Z</time>
      </trkpt>
      <trkpt lat="46.96481" lon="5.66995">
        <ele>245.273438</ele>
        <time>2011-04-19T12:57:57Z</time>
      </trkpt>
      <trkpt lat="46.96396" lon="5.66983">
        <ele>243.35083</ele>
        <time>2011-04-19T12:58:07Z</time>
      </trkpt>
      <trkpt lat="46.96324" lon="5.66976">
        <ele>241.428223</ele>
        <time>2011-04-19T12:58:16Z</time>
      </trkpt>
      <trkpt lat="46.96206" lon="5.6696">
        <ele>239.986206</ele>
        <time>2011-04-19T12:58:31Z</time>
      </trkpt>
      <trkpt lat="46.96128" lon="5.66953">
        <ele>239.505493</ele>
        <time>2011-04-19T12:58:41Z</time>
      </trkpt>
      <trkpt lat="46.96051" lon="5.66947">
        <ele>239.986206</ele>
        <time>2011-04-19T12:58:53Z</time>
      </trkpt>
      <trkpt lat="46.96015" lon="5.66946">
        <ele>240.467041</ele>
        <time>2011-04-19T12:58:59Z</time>
      </trkpt>
      <trkpt lat="46.95926" lon="5.66933">
        <ele>240.947632</ele>
        <time>2011-04-19T12:59:14Z</time>
      </trkpt>
      <trkpt lat="46.95819" lon="5.66976">
        <ele>239.986206</ele>
        <time>2011-04-19T12:59:31Z</time>
      </trkpt>
      <trkpt lat="46.95697" lon="5.67016">
        <ele>239.505493</ele>
        <time>2011-04-19T12:59:50Z</time>
      </trkpt>
      <trkpt lat="46.95623" lon="5.66981">
        <ele>238.544312</ele>
        <time>2011-04-19T13:00:02Z</time>
      </trkpt>
      <trkpt lat="46.95565" lon="5.66917">
        <ele>235.179688</ele>
        <time>2011-04-19T13:00:12Z</time>
      </trkpt>
      <trkpt lat="46.95447" lon="5.66763">
        <ele>232.776489</ele>
        <time>2011-04-19T13:00:32Z</time>
      </trkpt>
      <trkpt lat="46.95395" lon="5.66649">
        <ele>231.814941</ele>
        <time>2011-04-19T13:00:46Z</time>
      </trkpt>
      <trkpt lat="46.95336" lon="5.66556">
        <ele>231.814941</ele>
        <time>2011-04-19T13:01:00Z</time>
      </trkpt>
      <trkpt lat="46.95189" lon="5.66396">
        <ele>231.814941</ele>
        <time>2011-04-19T13:01:28Z</time>
      </trkpt>
      <trkpt lat="46.95083" lon="5.66333">
        <ele>231.814941</ele>
        <time>2011-04-19T13:01:46Z</time>
      </trkpt>
      <trkpt lat="46.94961" lon="5.66267">
        <ele>232.295776</ele>
        <time>2011-04-19T13:02:05Z</time>
      </trkpt>
      <trkpt lat="46.94783" lon="5.66171">
        <ele>233.25708</ele>
        <time>2011-04-19T13:02:33Z</time>
      </trkpt>
      <trkpt lat="46.94626" lon="5.66085">
        <ele>232.295776</ele>
        <time>2011-04-19T13:02:57Z</time>
      </trkpt>
      <trkpt lat="46.94562" lon="5.6603">
        <ele>233.25708</ele>
        <time>2011-04-19T13:03:08Z</time>
      </trkpt>
      <trkpt lat="46.94494" lon="5.65889">
        <ele>231.814941</ele>
        <time>2011-04-19T13:03:27Z</time>
      </trkpt>
      <trkpt lat="46.94418" lon="5.65775">
        <ele>232.776489</ele>
        <time>2011-04-19T13:03:44Z</time>
      </trkpt>
      <trkpt lat="46.94362" lon="5.65739">
        <ele>233.737671</ele>
        <time>2011-04-19T13:03:57Z</time>
      </trkpt>
      <trkpt lat="46.94338" lon="5.65747">
        <ele>233.737671</ele>
        <time>2011-04-19T13:04:08Z</time>
      </trkpt>
      <trkpt lat="46.94329" lon="5.65769">
        <ele>233.25708</ele>
        <time>2011-04-19T13:04:12Z</time>
      </trkpt>
      <trkpt lat="46.9427" lon="5.65871">
        <ele>234.218384</ele>
        <time>2011-04-19T13:04:31Z</time>
      </trkpt>
      <trkpt lat="46.94194" lon="5.65997">
        <ele>233.737671</ele>
        <time>2011-04-19T13:04:52Z</time>
      </trkpt>
      <trkpt lat="46.94108" lon="5.66101">
        <ele>234.699097</ele>
        <time>2011-04-19T13:05:11Z</time>
      </trkpt>
      <trkpt lat="46.94023" lon="5.66248">
        <ele>234.699097</ele>
        <time>2011-04-19T13:05:31Z</time>
      </trkpt>
      <trkpt lat="46.93923" lon="5.66425">
        <ele>235.179688</ele>
        <time>2011-04-19T13:05:55Z</time>
      </trkpt>
      <trkpt lat="46.93827" lon="5.66593">
        <ele>235.660278</ele>
        <time>2011-04-19T13:06:19Z</time>
      </trkpt>
      <trkpt lat="46.93715" lon="5.66792">
        <ele>238.063599</ele>
        <time>2011-04-19T13:06:48Z</time>
      </trkpt>
      <trkpt lat="46.93668" lon="5.66875">
        <ele>240.947632</ele>
        <time>2011-04-19T13:07:03Z</time>
      </trkpt>
      <trkpt lat="46.93601" lon="5.66991">
        <ele>242.870239</ele>
        <time>2011-04-19T13:07:22Z</time>
      </trkpt>
      <trkpt lat="46.93518" lon="5.67137">
        <ele>243.35083</ele>
        <time>2011-04-19T13:07:42Z</time>
      </trkpt>
      <trkpt lat="46.93475" lon="5.67212">
        <ele>246.234863</ele>
        <time>2011-04-19T13:07:55Z</time>
      </trkpt>
      <trkpt lat="46.9346" lon="5.67242">
        <ele>247.676758</ele>
        <time>2011-04-19T13:08:00Z</time>
      </trkpt>
      <trkpt lat="46.93402" lon="5.67339">
        <ele>246.234863</ele>
        <time>2011-04-19T13:08:15Z</time>
      </trkpt>
      <trkpt lat="46.93397" lon="5.67347">
        <ele>246.234863</ele>
        <time>2011-04-19T13:08:16Z</time>
      </trkpt>
      <trkpt lat="46.93375" lon="5.67386">
        <ele>244.312256</ele>
        <time>2011-04-19T13:08:21Z</time>
      </trkpt>
      <trkpt lat="46.93322" lon="5.67479">
        <ele>241.428223</ele>
        <time>2011-04-19T13:08:35Z</time>
      </trkpt>
      <trkpt lat="46.93323" lon="5.67502">
        <ele>240.947632</ele>
        <time>2011-04-19T13:08:39Z</time>
      </trkpt>
      <trkpt lat="46.93331" lon="5.67515">
        <ele>239.505493</ele>
        <time>2011-04-19T13:08:41Z</time>
      </trkpt>
      <trkpt lat="46.93325" lon="5.67548">
        <ele>239.024902</ele>
        <time>2011-04-19T13:08:45Z</time>
      </trkpt>
      <trkpt lat="46.93299" lon="5.67637">
        <ele>239.024902</ele>
        <time>2011-04-19T13:08:59Z</time>
      </trkpt>
      <trkpt lat="46.93298" lon="5.67701">
        <ele>240.947632</ele>
        <time>2011-04-19T13:09:08Z</time>
      </trkpt>
      <trkpt lat="46.93301" lon="5.6772">
        <ele>241.908936</ele>
        <time>2011-04-19T13:09:11Z</time>
      </trkpt>
      <trkpt lat="46.93294" lon="5.67801">
        <ele>244.792847</ele>
        <time>2011-04-19T13:09:24Z</time>
      </trkpt>
      <trkpt lat="46.93262" lon="5.6787">
        <ele>243.35083</ele>
        <time>2011-04-19T13:09:38Z</time>
      </trkpt>
      <trkpt lat="46.9323" lon="5.67916">
        <ele>242.389648</ele>
        <time>2011-04-19T13:09:48Z</time>
      </trkpt>
      <trkpt lat="46.93216" lon="5.67948">
        <ele>241.428223</ele>
        <time>2011-04-19T13:09:53Z</time>
      </trkpt>
      <trkpt lat="46.93177" lon="5.68094">
        <ele>239.024902</ele>
        <time>2011-04-19T13:10:10Z</time>
      </trkpt>
      <trkpt lat="46.9314" lon="5.6824">
        <ele>238.544312</ele>
        <time>2011-04-19T13:10:28Z</time>
      </trkpt>
      <trkpt lat="46.93135" lon="5.68278">
        <ele>239.505493</ele>
        <time>2011-04-19T13:10:33Z</time>
      </trkpt>
      <trkpt lat="46.93145" lon="5.68311">
        <ele>239.505493</ele>
        <time>2011-04-19T13:10:38Z</time>
      </trkpt>
      <trkpt lat="46.93162" lon="5.68339">
        <ele>238.544312</ele>
        <time>2011-04-19T13:10:42Z</time>
      </trkpt>
      <trkpt lat="46.93174" lon="5.68375">
        <ele>238.063599</ele>
        <time>2011-04-19T13:10:46Z</time>
      </trkpt>
      <trkpt lat="46.9318" lon="5.68442">
        <ele>238.063599</ele>
        <time>2011-04-19T13:10:53Z</time>
      </trkpt>
      <trkpt lat="46.93193" lon="5.68492">
        <ele>238.063599</ele>
        <time>2011-04-19T13:10:59Z</time>
      </trkpt>
      <trkpt lat="46.93237" lon="5.68591">
        <ele>238.544312</ele>
        <time>2011-04-19T13:11:13Z</time>
      </trkpt>
      <trkpt lat="46.93268" lon="5.68624">
        <ele>239.024902</ele>
        <time>2011-04-19T13:11:20Z</time>
      </trkpt>
      <trkpt lat="46.93279" lon="5.68628">
        <ele>238.544312</ele>
        <time>2011-04-19T13:11:22Z</time>
      </trkpt>
      <trkpt lat="46.93354" lon="5.68716">
        <ele>239.986206</ele>
        <time>2011-04-19T13:11:39Z</time>
      </trkpt>
      <trkpt lat="46.93396" lon="5.68774">
        <ele>242.870239</ele>
        <time>2011-04-19T13:11:52Z</time>
      </trkpt>
      <trkpt lat="46.93459" lon="5.68828">
        <ele>246.234863</ele>
        <time>2011-04-19T13:12:10Z</time>
      </trkpt>
      <trkpt lat="46.93506" lon="5.68871">
        <ele>248.638184</ele>
        <time>2011-04-19T13:12:26Z</time>
      </trkpt>
      <trkpt lat="46.93506" lon="5.68884">
        <ele>248.157593</ele>
        <time>2011-04-19T13:12:28Z</time>
      </trkpt>
      <trkpt lat="46.93514" lon="5.68918">
        <ele>246.715454</ele>
        <time>2011-04-19T13:12:33Z</time>
      </trkpt>
      <trkpt lat="46.93523" lon="5.68946">
        <ele>245.75415</ele>
        <time>2011-04-19T13:12:40Z</time>
      </trkpt>
      <trkpt lat="46.93532" lon="5.68939">
        <ele>247.196045</ele>
        <time>2011-04-19T13:12:44Z</time>
      </trkpt>
      <trkpt lat="46.93538" lon="5.68925">
        <ele>248.638184</ele>
        <time>2011-04-19T13:12:48Z</time>
      </trkpt>
      <trkpt lat="46.93556" lon="5.68896">
        <ele>251.522095</ele>
        <time>2011-04-19T13:12:57Z</time>
      </trkpt>
      <trkpt lat="46.93603" lon="5.68857">
        <ele>253.444702</ele>
        <time>2011-04-19T13:13:13Z</time>
      </trkpt>
      <trkpt lat="46.93643" lon="5.68825">
        <ele>256.809326</ele>
        <time>2011-04-19T13:13:28Z</time>
      </trkpt>
      <trkpt lat="46.93666" lon="5.68806">
        <ele>259.693359</ele>
        <time>2011-04-19T13:13:38Z</time>
      </trkpt>
      <trkpt lat="46.93689" lon="5.68786">
        <ele>262.577148</ele>
        <time>2011-04-19T13:13:49Z</time>
      </trkpt>
      <trkpt lat="46.93706" lon="5.68771">
        <ele>265.941895</ele>
        <time>2011-04-19T13:13:58Z</time>
      </trkpt>
      <trkpt lat="46.93725" lon="5.68758">
        <ele>269.306519</ele>
        <time>2011-04-19T13:14:08Z</time>
      </trkpt>
      <trkpt lat="46.93745" lon="5.6875">
        <ele>272.671143</ele>
        <time>2011-04-19T13:14:17Z</time>
      </trkpt>
      <trkpt lat="46.93768" lon="5.68733">
        <ele>276.035645</ele>
        <time>2011-04-19T13:14:28Z</time>
      </trkpt>
      <trkpt lat="46.93783" lon="5.68701">
        <ele>279.400269</ele>
        <time>2011-04-19T13:14:40Z</time>
      </trkpt>
      <trkpt lat="46.93818" lon="5.68648">
        <ele>281.803589</ele>
        <time>2011-04-19T13:15:01Z</time>
      </trkpt>
      <trkpt lat="46.93842" lon="5.68658">
        <ele>280.842407</ele>
        <time>2011-04-19T13:15:09Z</time>
      </trkpt>
      <trkpt lat="46.9386" lon="5.68684">
        <ele>280.361694</ele>
        <time>2011-04-19T13:15:26Z</time>
      </trkpt>
      <trkpt lat="46.93861" lon="5.68683">
        <ele>279.880859</ele>
        <time>2011-04-19T13:15:52Z</time>
      </trkpt>
      <trkpt lat="46.93861" lon="5.68682">
        <ele>278.438965</ele>
        <time>2011-04-19T13:18:24Z</time>
      </trkpt>
      <trkpt lat="46.93866" lon="5.68675">
        <ele>278.438965</ele>
        <time>2011-04-19T13:18:28Z</time>
      </trkpt>
      <trkpt lat="46.93897" lon="5.68657">
        <ele>275.555054</ele>
        <time>2011-04-19T13:18:36Z</time>
      </trkpt>
      <trkpt lat="46.93925" lon="5.68641">
        <ele>272.671143</ele>
        <time>2011-04-19T13:18:50Z</time>
      </trkpt>
      <trkpt lat="46.93938" lon="5.68604">
        <ele>269.787109</ele>
        <time>2011-04-19T13:19:02Z</time>
      </trkpt>
      <trkpt lat="46.93945" lon="5.68576">
        <ele>267.383911</ele>
        <time>2011-04-19T13:19:08Z</time>
      </trkpt>
      <trkpt lat="46.93951" lon="5.68555">
        <ele>265.941895</ele>
        <time>2011-04-19T13:19:12Z</time>
      </trkpt>
      <trkpt lat="46.93971" lon="5.68521">
        <ele>262.577148</ele>
        <time>2011-04-19T13:19:20Z</time>
      </trkpt>
      <trkpt lat="46.93999" lon="5.68476">
        <ele>259.212646</ele>
        <time>2011-04-19T13:19:29Z</time>
      </trkpt>
      <trkpt lat="46.94006" lon="5.68468">
        <ele>258.251343</ele>
        <time>2011-04-19T13:19:31Z</time>
      </trkpt>
      <trkpt lat="46.94009" lon="5.68464">
        <ele>257.770752</ele>
        <time>2011-04-19T13:19:32Z</time>
      </trkpt>
      <trkpt lat="46.94047" lon="5.68433">
        <ele>254.886597</ele>
        <time>2011-04-19T13:19:41Z</time>
      </trkpt>
      <trkpt lat="46.94072" lon="5.68439">
        <ele>254.886597</ele>
        <time>2011-04-19T13:19:47Z</time>
      </trkpt>
      <trkpt lat="46.941" lon="5.68476">
        <ele>258.731934</ele>
        <time>2011-04-19T13:19:59Z</time>
      </trkpt>
      <trkpt lat="46.94133" lon="5.68522">
        <ele>260.654541</ele>
        <time>2011-04-19T13:20:13Z</time>
      </trkpt>
      <trkpt lat="46.94179" lon="5.68539">
        <ele>258.731934</ele>
        <time>2011-04-19T13:20:26Z</time>
      </trkpt>
      <trkpt lat="46.94211" lon="5.68543">
        <ele>256.809326</ele>
        <time>2011-04-19T13:20:32Z</time>
      </trkpt>
      <trkpt lat="46.94234" lon="5.68557">
        <ele>255.36731</ele>
        <time>2011-04-19T13:20:36Z</time>
      </trkpt>
      <trkpt lat="46.9425" lon="5.68576">
        <ele>254.406006</ele>
        <time>2011-04-19T13:20:39Z</time>
      </trkpt>
      <trkpt lat="46.9427" lon="5.68613">
        <ele>252.963989</ele>
        <time>2011-04-19T13:20:43Z</time>
      </trkpt>
      <trkpt lat="46.94284" lon="5.68644">
        <ele>251.522095</ele>
        <time>2011-04-19T13:20:46Z</time>
      </trkpt>
      <trkpt lat="46.94322" lon="5.68677">
        <ele>251.522095</ele>
        <time>2011-04-19T13:20:52Z</time>
      </trkpt>
      <trkpt lat="46.94335" lon="5.68679">
        <ele>251.522095</ele>
        <time>2011-04-19T13:20:54Z</time>
      </trkpt>
      <trkpt lat="46.94366" lon="5.68718">
        <ele>253.444702</ele>
        <time>2011-04-19T13:21:02Z</time>
      </trkpt>
      <trkpt lat="46.94375" lon="5.68816">
        <ele>256.809326</ele>
        <time>2011-04-19T13:21:17Z</time>
      </trkpt>
      <trkpt lat="46.94362" lon="5.68885">
        <ele>259.693359</ele>
        <time>2011-04-19T13:21:29Z</time>
      </trkpt>
      <trkpt lat="46.94341" lon="5.68953">
        <ele>263.057861</ele>
        <time>2011-04-19T13:21:43Z</time>
      </trkpt>
      <trkpt lat="46.94294" lon="5.69037">
        <ele>266.422485</ele>
        <time>2011-04-19T13:22:02Z</time>
      </trkpt>
      <trkpt lat="46.94262" lon="5.69113">
        <ele>269.306519</ele>
        <time>2011-04-19T13:22:19Z</time>
      </trkpt>
      <trkpt lat="46.94247" lon="5.69182">
        <ele>266.422485</ele>
        <time>2011-04-19T13:22:32Z</time>
      </trkpt>
      <trkpt lat="46.94241" lon="5.69244">
        <ele>263.057861</ele>
        <time>2011-04-19T13:22:38Z</time>
      </trkpt>
      <trkpt lat="46.94245" lon="5.69304">
        <ele>259.693359</ele>
        <time>2011-04-19T13:22:43Z</time>
      </trkpt>
      <trkpt lat="46.94247" lon="5.69312">
        <ele>259.212646</ele>
        <time>2011-04-19T13:22:44Z</time>
      </trkpt>
      <trkpt lat="46.94268" lon="5.69382">
        <ele>255.848022</ele>
        <time>2011-04-19T13:22:53Z</time>
      </trkpt>
      <trkpt lat="46.94321" lon="5.69451">
        <ele>252.963989</ele>
        <time>2011-04-19T13:23:05Z</time>
      </trkpt>
      <trkpt lat="46.94376" lon="5.69537">
        <ele>255.36731</ele>
        <time>2011-04-19T13:23:20Z</time>
      </trkpt>
      <trkpt lat="46.94403" lon="5.69587">
        <ele>258.251343</ele>
        <time>2011-04-19T13:23:30Z</time>
      </trkpt>
      <trkpt lat="46.94427" lon="5.69636">
        <ele>261.615967</ele>
        <time>2011-04-19T13:23:41Z</time>
      </trkpt>
      <trkpt lat="46.94437" lon="5.69651">
        <ele>263.057861</ele>
        <time>2011-04-19T13:23:45Z</time>
      </trkpt>
      <trkpt lat="46.94463" lon="5.697">
        <ele>265.941895</ele>
        <time>2011-04-19T13:23:58Z</time>
      </trkpt>
      <trkpt lat="46.94492" lon="5.69761">
        <ele>268.825806</ele>
        <time>2011-04-19T13:24:14Z</time>
      </trkpt>
      <trkpt lat="46.94525" lon="5.69821">
        <ele>271.709717</ele>
        <time>2011-04-19T13:24:30Z</time>
      </trkpt>
      <trkpt lat="46.94569" lon="5.69917">
        <ele>271.709717</ele>
        <time>2011-04-19T13:24:49Z</time>
      </trkpt>
      <trkpt lat="46.94593" lon="5.70073">
        <ele>268.345093</ele>
        <time>2011-04-19T13:25:04Z</time>
      </trkpt>
      <trkpt lat="46.94604" lon="5.70226">
        <ele>265.461304</ele>
        <time>2011-04-19T13:25:18Z</time>
      </trkpt>
      <trkpt lat="46.94624" lon="5.70369">
        <ele>262.577148</ele>
        <time>2011-04-19T13:25:30Z</time>
      </trkpt>
      <trkpt lat="46.94629" lon="5.70394">
        <ele>262.096558</ele>
        <time>2011-04-19T13:25:32Z</time>
      </trkpt>
      <trkpt lat="46.94657" lon="5.70544">
        <ele>259.212646</ele>
        <time>2011-04-19T13:25:45Z</time>
      </trkpt>
      <trkpt lat="46.94674" lon="5.70613">
        <ele>257.290039</ele>
        <time>2011-04-19T13:25:52Z</time>
      </trkpt>
      <trkpt lat="46.94692" lon="5.70649">
        <ele>256.328735</ele>
        <time>2011-04-19T13:25:57Z</time>
      </trkpt>
      <trkpt lat="46.94737" lon="5.70685">
        <ele>254.886597</ele>
        <time>2011-04-19T13:26:04Z</time>
      </trkpt>
      <trkpt lat="46.94771" lon="5.70695">
        <ele>254.406006</ele>
        <time>2011-04-19T13:26:08Z</time>
      </trkpt>
      <trkpt lat="46.94859" lon="5.70756">
        <ele>252.963989</ele>
        <time>2011-04-19T13:26:20Z</time>
      </trkpt>
      <trkpt lat="46.94887" lon="5.70772">
        <ele>252.483398</ele>
        <time>2011-04-19T13:26:24Z</time>
      </trkpt>
      <trkpt lat="46.94906" lon="5.70827">
        <ele>252.963989</ele>
        <time>2011-04-19T13:26:30Z</time>
      </trkpt>
      <trkpt lat="46.94905" lon="5.70837">
        <ele>252.963989</ele>
        <time>2011-04-19T13:26:31Z</time>
      </trkpt>
      <trkpt lat="46.94891" lon="5.70933">
        <ele>252.002808</ele>
        <time>2011-04-19T13:26:40Z</time>
      </trkpt>
      <trkpt lat="46.94879" lon="5.7106">
        <ele>252.483398</ele>
        <time>2011-04-19T13:26:54Z</time>
      </trkpt>
      <trkpt lat="46.94893" lon="5.71115">
        <ele>254.406006</ele>
        <time>2011-04-19T13:27:02Z</time>
      </trkpt>
      <trkpt lat="46.94896" lon="5.7112">
        <ele>254.886597</ele>
        <time>2011-04-19T13:27:03Z</time>
      </trkpt>
      <trkpt lat="46.9496" lon="5.71203">
        <ele>255.36731</ele>
        <time>2011-04-19T13:27:20Z</time>
      </trkpt>
      <trkpt lat="46.95031" lon="5.71303">
        <ele>252.483398</ele>
        <time>2011-04-19T13:27:35Z</time>
      </trkpt>
      <trkpt lat="46.9504" lon="5.7135">
        <ele>252.963989</ele>
        <time>2011-04-19T13:27:40Z</time>
      </trkpt>
      <trkpt lat="46.95028" lon="5.71488">
        <ele>254.406006</ele>
        <time>2011-04-19T13:27:57Z</time>
      </trkpt>
      <trkpt lat="46.95024" lon="5.71529">
        <ele>254.886597</ele>
        <time>2011-04-19T13:28:03Z</time>
      </trkpt>
      <trkpt lat="46.95024" lon="5.71567">
        <ele>254.886597</ele>
        <time>2011-04-19T13:28:09Z</time>
      </trkpt>
      <trkpt lat="46.95033" lon="5.71599">
        <ele>255.848022</ele>
        <time>2011-04-19T13:28:14Z</time>
      </trkpt>
      <trkpt lat="46.95088" lon="5.71674">
        <ele>258.251343</ele>
        <time>2011-04-19T13:28:31Z</time>
      </trkpt>
      <trkpt lat="46.9513" lon="5.71679">
        <ele>262.096558</ele>
        <time>2011-04-19T13:28:44Z</time>
      </trkpt>
      <trkpt lat="46.95164" lon="5.71684">
        <ele>264.980591</ele>
        <time>2011-04-19T13:28:56Z</time>
      </trkpt>
      <trkpt lat="46.95191" lon="5.71691">
        <ele>268.345093</ele>
        <time>2011-04-19T13:29:06Z</time>
      </trkpt>
      <trkpt lat="46.95214" lon="5.7171">
        <ele>271.229126</ele>
        <time>2011-04-19T13:29:16Z</time>
      </trkpt>
      <trkpt lat="46.95238" lon="5.71731">
        <ele>275.074463</ele>
        <time>2011-04-19T13:29:28Z</time>
      </trkpt>
      <trkpt lat="46.95267" lon="5.71717">
        <ele>277.958252</ele>
        <time>2011-04-19T13:29:42Z</time>
      </trkpt>
      <trkpt lat="46.95296" lon="5.71694">
        <ele>279.880859</ele>
        <time>2011-04-19T13:29:56Z</time>
      </trkpt>
      <trkpt lat="46.95311" lon="5.71739">
        <ele>283.245605</ele>
        <time>2011-04-19T13:30:12Z</time>
      </trkpt>
      <trkpt lat="46.95313" lon="5.71823">
        <ele>286.129517</ele>
        <time>2011-04-19T13:30:32Z</time>
      </trkpt>
      <trkpt lat="46.95338" lon="5.71892">
        <ele>289.494141</ele>
        <time>2011-04-19T13:30:49Z</time>
      </trkpt>
      <trkpt lat="46.95389" lon="5.71946">
        <ele>291.897461</ele>
        <time>2011-04-19T13:31:07Z</time>
      </trkpt>
      <trkpt lat="46.95421" lon="5.71999">
        <ele>292.378174</ele>
        <time>2011-04-19T13:31:24Z</time>
      </trkpt>
      <trkpt lat="46.95425" lon="5.72017">
        <ele>292.858765</ele>
        <time>2011-04-19T13:31:30Z</time>
      </trkpt>
      <trkpt lat="46.95421" lon="5.72068">
        <ele>293.820068</ele>
        <time>2011-04-19T13:31:46Z</time>
      </trkpt>
      <trkpt lat="46.95406" lon="5.7209">
        <ele>292.378174</ele>
        <time>2011-04-19T13:32:02Z</time>
      </trkpt>
      <trkpt lat="46.95407" lon="5.7209">
        <ele>292.378174</ele>
        <time>2011-04-19T13:34:25Z</time>
      </trkpt>
      <trkpt lat="46.95382" lon="5.72123">
        <ele>291.416748</ele>
        <time>2011-04-19T13:34:37Z</time>
      </trkpt>
      <trkpt lat="46.95379" lon="5.72128">
        <ele>291.416748</ele>
        <time>2011-04-19T13:34:38Z</time>
      </trkpt>
      <trkpt lat="46.95372" lon="5.72145">
        <ele>290.455566</ele>
        <time>2011-04-19T13:34:41Z</time>
      </trkpt>
      <trkpt lat="46.95366" lon="5.72185">
        <ele>289.494141</ele>
        <time>2011-04-19T13:34:46Z</time>
      </trkpt>
      <trkpt lat="46.95391" lon="5.72327">
        <ele>286.129517</ele>
        <time>2011-04-19T13:35:02Z</time>
      </trkpt>
      <trkpt lat="46.954" lon="5.72353">
        <ele>285.168213</ele>
        <time>2011-04-19T13:35:05Z</time>
      </trkpt>
      <trkpt lat="46.95407" lon="5.72417">
        <ele>283.726196</ele>
        <time>2011-04-19T13:35:11Z</time>
      </trkpt>
      <trkpt lat="46.95406" lon="5.72463">
        <ele>282.765015</ele>
        <time>2011-04-19T13:35:15Z</time>
      </trkpt>
      <trkpt lat="46.95435" lon="5.72584">
        <ele>281.803589</ele>
        <time>2011-04-19T13:35:29Z</time>
      </trkpt>
      <trkpt lat="46.95448" lon="5.72632">
        <ele>281.803589</ele>
        <time>2011-04-19T13:35:35Z</time>
      </trkpt>
      <trkpt lat="46.9545" lon="5.72658">
        <ele>281.803589</ele>
        <time>2011-04-19T13:35:38Z</time>
      </trkpt>
      <trkpt lat="46.95417" lon="5.7278">
        <ele>280.842407</ele>
        <time>2011-04-19T13:35:53Z</time>
      </trkpt>
      <trkpt lat="46.954" lon="5.72903">
        <ele>279.400269</ele>
        <time>2011-04-19T13:36:06Z</time>
      </trkpt>
      <trkpt lat="46.954" lon="5.72916">
        <ele>278.438965</ele>
        <time>2011-04-19T13:36:07Z</time>
      </trkpt>
      <trkpt lat="46.95398" lon="5.72942">
        <ele>277.477661</ele>
        <time>2011-04-19T13:36:09Z</time>
      </trkpt>
      <trkpt lat="46.95365" lon="5.73075">
        <ele>276.035645</ele>
        <time>2011-04-19T13:36:21Z</time>
      </trkpt>
      <trkpt lat="46.95342" lon="5.73193">
        <ele>278.919678</ele>
        <time>2011-04-19T13:36:37Z</time>
      </trkpt>
      <trkpt lat="46.95356" lon="5.732">
        <ele>279.400269</ele>
        <time>2011-04-19T13:36:41Z</time>
      </trkpt>
      <trkpt lat="46.95438" lon="5.73197">
        <ele>275.555054</ele>
        <time>2011-04-19T13:36:55Z</time>
      </trkpt>
      <trkpt lat="46.95446" lon="5.732">
        <ele>275.074463</ele>
        <time>2011-04-19T13:36:56Z</time>
      </trkpt>
      <trkpt lat="46.95507" lon="5.73237">
        <ele>273.151855</ele>
        <time>2011-04-19T13:37:04Z</time>
      </trkpt>
      <trkpt lat="46.95536" lon="5.73239">
        <ele>273.151855</ele>
        <time>2011-04-19T13:37:08Z</time>
      </trkpt>
      <trkpt lat="46.95629" lon="5.732">
        <ele>273.151855</ele>
        <time>2011-04-19T13:37:23Z</time>
      </trkpt>
      <trkpt lat="46.95764" lon="5.73136">
        <ele>272.671143</ele>
        <time>2011-04-19T13:37:45Z</time>
      </trkpt>
      <trkpt lat="46.95906" lon="5.73069">
        <ele>274.113037</ele>
        <time>2011-04-19T13:38:10Z</time>
      </trkpt>
      <trkpt lat="46.95917" lon="5.73064">
        <ele>274.113037</ele>
        <time>2011-04-19T13:38:12Z</time>
      </trkpt>
      <trkpt lat="46.95982" lon="5.72985">
        <ele>274.59375</ele>
        <time>2011-04-19T13:38:26Z</time>
      </trkpt>
      <trkpt lat="46.96076" lon="5.72807">
        <ele>277.958252</ele>
        <time>2011-04-19T13:38:52Z</time>
      </trkpt>
      <trkpt lat="46.96153" lon="5.72676">
        <ele>280.842407</ele>
        <time>2011-04-19T13:39:13Z</time>
      </trkpt>
      <trkpt lat="46.96231" lon="5.72643">
        <ele>282.284302</ele>
        <time>2011-04-19T13:39:27Z</time>
      </trkpt>
      <trkpt lat="46.96333" lon="5.72612">
        <ele>284.206909</ele>
        <time>2011-04-19T13:39:45Z</time>
      </trkpt>
      <trkpt lat="46.96362" lon="5.72563">
        <ele>282.765015</ele>
        <time>2011-04-19T13:39:52Z</time>
      </trkpt>
      <trkpt lat="46.96372" lon="5.72514">
        <ele>281.322998</ele>
        <time>2011-04-19T13:39:57Z</time>
      </trkpt>
      <trkpt lat="46.9639" lon="5.72475">
        <ele>279.400269</ele>
        <time>2011-04-19T13:40:01Z</time>
      </trkpt>
      <trkpt lat="46.96421" lon="5.72456">
        <ele>277.958252</ele>
        <time>2011-04-19T13:40:05Z</time>
      </trkpt>
      <trkpt lat="46.96458" lon="5.72448">
        <ele>276.035645</ele>
        <time>2011-04-19T13:40:09Z</time>
      </trkpt>
      <trkpt lat="46.9653" lon="5.72433">
        <ele>272.671143</ele>
        <time>2011-04-19T13:40:16Z</time>
      </trkpt>
      <trkpt lat="46.9654" lon="5.72431">
        <ele>272.671143</ele>
        <time>2011-04-19T13:40:17Z</time>
      </trkpt>
      <trkpt lat="46.96561" lon="5.72426">
        <ele>271.229126</ele>
        <time>2011-04-19T13:40:19Z</time>
      </trkpt>
      <trkpt lat="46.96599" lon="5.72417">
        <ele>269.787109</ele>
        <time>2011-04-19T13:40:23Z</time>
      </trkpt>
      <trkpt lat="46.96723" lon="5.72392">
        <ele>267.383911</ele>
        <time>2011-04-19T13:40:39Z</time>
      </trkpt>
      <trkpt lat="46.96755" lon="5.72381">
        <ele>267.383911</ele>
        <time>2011-04-19T13:40:44Z</time>
      </trkpt>
      <trkpt lat="46.96845" lon="5.72303">
        <ele>268.825806</ele>
        <time>2011-04-19T13:41:00Z</time>
      </trkpt>
      <trkpt lat="46.96896" lon="5.7226">
        <ele>266.903198</ele>
        <time>2011-04-19T13:41:13Z</time>
      </trkpt>
      <trkpt lat="46.96902" lon="5.72253">
        <ele>266.422485</ele>
        <time>2011-04-19T13:41:29Z</time>
      </trkpt>
      <trkpt lat="46.96904" lon="5.72254">
        <ele>266.903198</ele>
        <time>2011-04-19T13:42:11Z</time>
      </trkpt>
      <trkpt lat="46.96904" lon="5.72256">
        <ele>266.903198</ele>
        <time>2011-04-19T13:46:29Z</time>
      </trkpt>
      <trkpt lat="46.96903" lon="5.72254">
        <ele>267.383911</ele>
        <time>2011-04-19T13:47:41Z</time>
      </trkpt>
      <trkpt lat="46.96931" lon="5.72218">
        <ele>267.383911</ele>
        <time>2011-04-19T13:47:55Z</time>
      </trkpt>
      <trkpt lat="46.97002" lon="5.72143">
        <ele>266.422485</ele>
        <time>2011-04-19T13:48:15Z</time>
      </trkpt>
      <trkpt lat="46.97095" lon="5.72043">
        <ele>263.538574</ele>
        <time>2011-04-19T13:48:36Z</time>
      </trkpt>
      <trkpt lat="46.9715" lon="5.71983">
        <ele>261.615967</ele>
        <time>2011-04-19T13:48:47Z</time>
      </trkpt>
      <trkpt lat="46.97235" lon="5.71853">
        <ele>258.251343</ele>
        <time>2011-04-19T13:49:04Z</time>
      </trkpt>
      <trkpt lat="46.97314" lon="5.71729">
        <ele>255.36731</ele>
        <time>2011-04-19T13:49:21Z</time>
      </trkpt>
      <trkpt lat="46.97366" lon="5.71652">
        <ele>254.406006</ele>
        <time>2011-04-19T13:49:31Z</time>
      </trkpt>
      <trkpt lat="46.97382" lon="5.71631">
        <ele>253.925415</ele>
        <time>2011-04-19T13:49:34Z</time>
      </trkpt>
      <trkpt lat="46.97423" lon="5.71595">
        <ele>252.483398</ele>
        <time>2011-04-19T13:49:41Z</time>
      </trkpt>
      <trkpt lat="46.97467" lon="5.7158">
        <ele>252.963989</ele>
        <time>2011-04-19T13:49:48Z</time>
      </trkpt>
      <trkpt lat="46.97491" lon="5.71576">
        <ele>252.963989</ele>
        <time>2011-04-19T13:49:52Z</time>
      </trkpt>
      <trkpt lat="46.97512" lon="5.71573">
        <ele>253.444702</ele>
        <time>2011-04-19T13:49:56Z</time>
      </trkpt>
      <trkpt lat="46.97539" lon="5.71568">
        <ele>253.444702</ele>
        <time>2011-04-19T13:50:00Z</time>
      </trkpt>
      <trkpt lat="46.97563" lon="5.71554">
        <ele>253.444702</ele>
        <time>2011-04-19T13:50:04Z</time>
      </trkpt>
      <trkpt lat="46.97588" lon="5.71524">
        <ele>253.444702</ele>
        <time>2011-04-19T13:50:09Z</time>
      </trkpt>
      <trkpt lat="46.97601" lon="5.71504">
        <ele>252.963989</ele>
        <time>2011-04-19T13:50:12Z</time>
      </trkpt>
      <trkpt lat="46.97696" lon="5.7143">
        <ele>252.963989</ele>
        <time>2011-04-19T13:50:28Z</time>
      </trkpt>
      <trkpt lat="46.97714" lon="5.71416">
        <ele>252.483398</ele>
        <time>2011-04-19T13:50:31Z</time>
      </trkpt>
      <trkpt lat="46.97771" lon="5.71401">
        <ele>251.522095</ele>
        <time>2011-04-19T13:50:39Z</time>
      </trkpt>
      <trkpt lat="46.9784" lon="5.71413">
        <ele>249.118774</ele>
        <time>2011-04-19T13:50:48Z</time>
      </trkpt>
      <trkpt lat="46.97888" lon="5.71418">
        <ele>248.638184</ele>
        <time>2011-04-19T13:50:54Z</time>
      </trkpt>
      <trkpt lat="46.97957" lon="5.71401">
        <ele>246.234863</ele>
        <time>2011-04-19T13:51:03Z</time>
      </trkpt>
      <trkpt lat="46.98035" lon="5.71425">
        <ele>245.273438</ele>
        <time>2011-04-19T13:51:13Z</time>
      </trkpt>
      <trkpt lat="46.98107" lon="5.71412">
        <ele>246.234863</ele>
        <time>2011-04-19T13:51:24Z</time>
      </trkpt>
      <trkpt lat="46.98133" lon="5.71407">
        <ele>246.715454</ele>
        <time>2011-04-19T13:51:28Z</time>
      </trkpt>
      <trkpt lat="46.9823" lon="5.7136">
        <ele>245.273438</ele>
        <time>2011-04-19T13:51:43Z</time>
      </trkpt>
      <trkpt lat="46.98325" lon="5.71301">
        <ele>246.715454</ele>
        <time>2011-04-19T13:52:00Z</time>
      </trkpt>
      <trkpt lat="46.9844" lon="5.71244">
        <ele>244.792847</ele>
        <time>2011-04-19T13:52:17Z</time>
      </trkpt>
      <trkpt lat="46.9854" lon="5.71154">
        <ele>245.75415</ele>
        <time>2011-04-19T13:52:35Z</time>
      </trkpt>
      <trkpt lat="46.98613" lon="5.71068">
        <ele>246.234863</ele>
        <time>2011-04-19T13:52:49Z</time>
      </trkpt>
      <trkpt lat="46.98627" lon="5.71049">
        <ele>247.676758</ele>
        <time>2011-04-19T13:52:53Z</time>
      </trkpt>
      <trkpt lat="46.98674" lon="5.70988">
        <ele>248.157593</ele>
        <time>2011-04-19T13:53:04Z</time>
      </trkpt>
      <trkpt lat="46.98684" lon="5.70967">
        <ele>249.118774</ele>
        <time>2011-04-19T13:53:07Z</time>
      </trkpt>
      <trkpt lat="46.98696" lon="5.70922">
        <ele>249.118774</ele>
        <time>2011-04-19T13:53:13Z</time>
      </trkpt>
      <trkpt lat="46.987" lon="5.70896">
        <ele>249.118774</ele>
        <time>2011-04-19T13:53:16Z</time>
      </trkpt>
      <trkpt lat="46.9874" lon="5.7085">
        <ele>248.157593</ele>
        <time>2011-04-19T13:53:24Z</time>
      </trkpt>
      <trkpt lat="46.9885" lon="5.70835">
        <ele>250.560791</ele>
        <time>2011-04-19T13:53:42Z</time>
      </trkpt>
      <trkpt lat="46.98992" lon="5.70764">
        <ele>249.118774</ele>
        <time>2011-04-19T13:54:04Z</time>
      </trkpt>
      <trkpt lat="46.99055" lon="5.70739">
        <ele>249.118774</ele>
        <time>2011-04-19T13:54:15Z</time>
      </trkpt>
      <trkpt lat="46.9909" lon="5.70744">
        <ele>247.196045</ele>
        <time>2011-04-19T13:54:20Z</time>
      </trkpt>
      <trkpt lat="46.99115" lon="5.70738">
        <ele>245.273438</ele>
        <time>2011-04-19T13:54:23Z</time>
      </trkpt>
      <trkpt lat="46.99123" lon="5.70734">
        <ele>244.312256</ele>
        <time>2011-04-19T13:54:24Z</time>
      </trkpt>
      <trkpt lat="46.99151" lon="5.70718">
        <ele>243.35083</ele>
        <time>2011-04-19T13:54:27Z</time>
      </trkpt>
      <trkpt lat="46.99198" lon="5.70687">
        <ele>240.467041</ele>
        <time>2011-04-19T13:54:32Z</time>
      </trkpt>
      <trkpt lat="46.99207" lon="5.7068">
        <ele>239.986206</ele>
        <time>2011-04-19T13:54:33Z</time>
      </trkpt>
      <trkpt lat="46.99239" lon="5.70638">
        <ele>238.063599</ele>
        <time>2011-04-19T13:54:37Z</time>
      </trkpt>
      <trkpt lat="46.99253" lon="5.70614">
        <ele>236.621704</ele>
        <time>2011-04-19T13:54:39Z</time>
      </trkpt>
      <trkpt lat="46.99297" lon="5.70571">
        <ele>233.25708</ele>
        <time>2011-04-19T13:54:44Z</time>
      </trkpt>
      <trkpt lat="46.99361" lon="5.70526">
        <ele>230.373047</ele>
        <time>2011-04-19T13:54:51Z</time>
      </trkpt>
      <trkpt lat="46.99432" lon="5.70454">
        <ele>227.008545</ele>
        <time>2011-04-19T13:55:00Z</time>
      </trkpt>
      <trkpt lat="46.9954" lon="5.70384">
        <ele>225.085938</ele>
        <time>2011-04-19T13:55:15Z</time>
      </trkpt>
      <trkpt lat="46.99653" lon="5.70319">
        <ele>224.124512</ele>
        <time>2011-04-19T13:55:36Z</time>
      </trkpt>
      <trkpt lat="46.99695" lon="5.70302">
        <ele>223.643799</ele>
        <time>2011-04-19T13:55:48Z</time>
      </trkpt>
      <trkpt lat="46.99714" lon="5.7029">
        <ele>223.163208</ele>
        <time>2011-04-19T13:56:21Z</time>
      </trkpt>
      <trkpt lat="46.99748" lon="5.70276">
        <ele>222.682495</ele>
        <time>2011-04-19T13:56:29Z</time>
      </trkpt>
      <trkpt lat="46.99842" lon="5.70235">
        <ele>223.163208</ele>
        <time>2011-04-19T13:56:48Z</time>
      </trkpt>
      <trkpt lat="46.9993" lon="5.70259">
        <ele>222.201782</ele>
        <time>2011-04-19T13:57:03Z</time>
      </trkpt>
      <trkpt lat="47.00078" lon="5.7032">
        <ele>222.201782</ele>
        <time>2011-04-19T13:57:29Z</time>
      </trkpt>
      <trkpt lat="47.00256" lon="5.70395">
        <ele>224.605225</ele>
        <time>2011-04-19T13:58:01Z</time>
      </trkpt>
      <trkpt lat="47.00267" lon="5.70399">
        <ele>224.605225</ele>
        <time>2011-04-19T13:58:03Z</time>
      </trkpt>
      <trkpt lat="47.00351" lon="5.70384">
        <ele>225.085938</ele>
        <time>2011-04-19T13:58:19Z</time>
      </trkpt>
      <trkpt lat="47.00475" lon="5.70361">
        <ele>224.124512</ele>
        <time>2011-04-19T13:58:40Z</time>
      </trkpt>
      <trkpt lat="47.00634" lon="5.7033">
        <ele>223.643799</ele>
        <time>2011-04-19T13:59:06Z</time>
      </trkpt>
      <trkpt lat="47.00816" lon="5.70293">
        <ele>223.163208</ele>
        <time>2011-04-19T13:59:35Z</time>
      </trkpt>
      <trkpt lat="47.0098" lon="5.70229">
        <ele>222.682495</ele>
        <time>2011-04-19T14:00:01Z</time>
      </trkpt>
      <trkpt lat="47.01145" lon="5.70157">
        <ele>222.682495</ele>
        <time>2011-04-19T14:00:27Z</time>
      </trkpt>
      <trkpt lat="47.01273" lon="5.70152">
        <ele>222.201782</ele>
        <time>2011-04-19T14:00:47Z</time>
      </trkpt>
      <trkpt lat="47.01471" lon="5.70149">
        <ele>222.201782</ele>
        <time>2011-04-19T14:01:18Z</time>
      </trkpt>
      <trkpt lat="47.01674" lon="5.70143">
        <ele>222.682495</ele>
        <time>2011-04-19T14:01:49Z</time>
      </trkpt>
      <trkpt lat="47.01906" lon="5.70138">
        <ele>222.201782</ele>
        <time>2011-04-19T14:02:24Z</time>
      </trkpt>
      <trkpt lat="47.02137" lon="5.70135">
        <ele>222.201782</ele>
        <time>2011-04-19T14:02:58Z</time>
      </trkpt>
      <trkpt lat="47.02273" lon="5.70134">
        <ele>222.201782</ele>
        <time>2011-04-19T14:03:20Z</time>
      </trkpt>
      <trkpt lat="47.02277" lon="5.70133">
        <ele>222.201782</ele>
        <time>2011-04-19T14:03:21Z</time>
      </trkpt>
      <trkpt lat="47.0229" lon="5.70164">
        <ele>223.163208</ele>
        <time>2011-04-19T14:03:28Z</time>
      </trkpt>
      <trkpt lat="47.0226" lon="5.7033">
        <ele>224.124512</ele>
        <time>2011-04-19T14:03:50Z</time>
      </trkpt>
      <trkpt lat="47.02257" lon="5.70516">
        <ele>224.124512</ele>
        <time>2011-04-19T14:04:11Z</time>
      </trkpt>
      <trkpt lat="47.02251" lon="5.70701">
        <ele>224.124512</ele>
        <time>2011-04-19T14:04:31Z</time>
      </trkpt>
      <trkpt lat="47.02232" lon="5.70886">
        <ele>223.643799</ele>
        <time>2011-04-19T14:04:51Z</time>
      </trkpt>
      <trkpt lat="47.0222" lon="5.70923">
        <ele>223.643799</ele>
        <time>2011-04-19T14:04:55Z</time>
      </trkpt>
      <trkpt lat="47.02141" lon="5.71064">
        <ele>223.643799</ele>
        <time>2011-04-19T14:05:14Z</time>
      </trkpt>
      <trkpt lat="47.0213" lon="5.71128">
        <ele>224.124512</ele>
        <time>2011-04-19T14:05:21Z</time>
      </trkpt>
      <trkpt lat="47.02151" lon="5.71353">
        <ele>223.643799</ele>
        <time>2011-04-19T14:05:45Z</time>
      </trkpt>
      <trkpt lat="47.02187" lon="5.71436">
        <ele>223.643799</ele>
        <time>2011-04-19T14:05:55Z</time>
      </trkpt>
      <trkpt lat="47.02192" lon="5.71502">
        <ele>224.124512</ele>
        <time>2011-04-19T14:06:02Z</time>
      </trkpt>
      <trkpt lat="47.02155" lon="5.71711">
        <ele>223.643799</ele>
        <time>2011-04-19T14:06:25Z</time>
      </trkpt>
      <trkpt lat="47.0212" lon="5.71745">
        <ele>224.124512</ele>
        <time>2011-04-19T14:06:32Z</time>
      </trkpt>
      <trkpt lat="47.02101" lon="5.71745">
        <ele>223.643799</ele>
        <time>2011-04-19T14:06:35Z</time>
      </trkpt>
      <trkpt lat="47.02079" lon="5.71777">
        <ele>224.124512</ele>
        <time>2011-04-19T14:06:41Z</time>
      </trkpt>
      <trkpt lat="47.0211" lon="5.71913">
        <ele>224.124512</ele>
        <time>2011-04-19T14:06:56Z</time>
      </trkpt>
      <trkpt lat="47.02135" lon="5.71992">
        <ele>224.605225</ele>
        <time>2011-04-19T14:07:10Z</time>
      </trkpt>
      <trkpt lat="47.02138" lon="5.71996">
        <ele>224.605225</ele>
        <time>2011-04-19T14:07:12Z</time>
      </trkpt>
      <trkpt lat="47.02146" lon="5.71995">
        <ele>224.605225</ele>
        <time>2011-04-19T14:07:16Z</time>
      </trkpt>
      <trkpt lat="47.022" lon="5.71975">
        <ele>224.124512</ele>
        <time>2011-04-19T14:07:34Z</time>
      </trkpt>
      <trkpt lat="47.02265" lon="5.71951">
        <ele>223.643799</ele>
        <time>2011-04-19T14:07:51Z</time>
      </trkpt>
      <trkpt lat="47.02351" lon="5.7193">
        <ele>223.643799</ele>
        <time>2011-04-19T14:08:08Z</time>
      </trkpt>
      <trkpt lat="47.02436" lon="5.71941">
        <ele>223.643799</ele>
        <time>2011-04-19T14:08:24Z</time>
      </trkpt>
      <trkpt lat="47.02599" lon="5.71916">
        <ele>223.643799</ele>
        <time>2011-04-19T14:08:52Z</time>
      </trkpt>
      <trkpt lat="47.02746" lon="5.71886">
        <ele>224.124512</ele>
        <time>2011-04-19T14:09:17Z</time>
      </trkpt>
      <trkpt lat="47.02839" lon="5.71875">
        <ele>224.605225</ele>
        <time>2011-04-19T14:09:33Z</time>
      </trkpt>
      <trkpt lat="47.02949" lon="5.71859">
        <ele>227.008545</ele>
        <time>2011-04-19T14:09:54Z</time>
      </trkpt>
      <trkpt lat="47.0304" lon="5.71848">
        <ele>230.373047</ele>
        <time>2011-04-19T14:10:14Z</time>
      </trkpt>
      <trkpt lat="47.03126" lon="5.71823">
        <ele>229.411743</ele>
        <time>2011-04-19T14:10:30Z</time>
      </trkpt>
      <trkpt lat="47.03246" lon="5.71808">
        <ele>230.373047</ele>
        <time>2011-04-19T14:10:52Z</time>
      </trkpt>
      <trkpt lat="47.03363" lon="5.71822">
        <ele>231.814941</ele>
        <time>2011-04-19T14:11:14Z</time>
      </trkpt>
      <trkpt lat="47.03479" lon="5.71851">
        <ele>233.25708</ele>
        <time>2011-04-19T14:11:35Z</time>
      </trkpt>
      <trkpt lat="47.03594" lon="5.71858">
        <ele>235.179688</ele>
        <time>2011-04-19T14:11:55Z</time>
      </trkpt>
      <trkpt lat="47.03689" lon="5.71817">
        <ele>238.063599</ele>
        <time>2011-04-19T14:12:13Z</time>
      </trkpt>
      <trkpt lat="47.03777" lon="5.7178">
        <ele>241.428223</ele>
        <time>2011-04-19T14:12:30Z</time>
      </trkpt>
      <trkpt lat="47.03862" lon="5.71737">
        <ele>244.312256</ele>
        <time>2011-04-19T14:12:47Z</time>
      </trkpt>
      <trkpt lat="47.03941" lon="5.71711">
        <ele>245.75415</ele>
        <time>2011-04-19T14:13:02Z</time>
      </trkpt>
      <trkpt lat="47.04028" lon="5.71688">
        <ele>246.234863</ele>
        <time>2011-04-19T14:13:17Z</time>
      </trkpt>
      <trkpt lat="47.04132" lon="5.71662">
        <ele>247.676758</ele>
        <time>2011-04-19T14:13:34Z</time>
      </trkpt>
      <trkpt lat="47.04172" lon="5.71653">
        <ele>248.638184</ele>
        <time>2011-04-19T14:13:41Z</time>
      </trkpt>
      <trkpt lat="47.04308" lon="5.71616">
        <ele>248.638184</ele>
        <time>2011-04-19T14:14:04Z</time>
      </trkpt>
      <trkpt lat="47.04437" lon="5.71583">
        <ele>248.157593</ele>
        <time>2011-04-19T14:14:24Z</time>
      </trkpt>
      <trkpt lat="47.04539" lon="5.71558">
        <ele>246.715454</ele>
        <time>2011-04-19T14:14:40Z</time>
      </trkpt>
      <trkpt lat="47.04694" lon="5.71516">
        <ele>248.638184</ele>
        <time>2011-04-19T14:15:05Z</time>
      </trkpt>
      <trkpt lat="47.04802" lon="5.71488">
        <ele>250.0802</ele>
        <time>2011-04-19T14:15:23Z</time>
      </trkpt>
      <trkpt lat="47.04889" lon="5.71468">
        <ele>247.676758</ele>
        <time>2011-04-19T14:15:38Z</time>
      </trkpt>
      <trkpt lat="47.04979" lon="5.71441">
        <ele>246.715454</ele>
        <time>2011-04-19T14:15:52Z</time>
      </trkpt>
      <trkpt lat="47.0511" lon="5.71412">
        <ele>243.35083</ele>
        <time>2011-04-19T14:16:09Z</time>
      </trkpt>
      <trkpt lat="47.05238" lon="5.71382">
        <ele>239.986206</ele>
        <time>2011-04-19T14:16:24Z</time>
      </trkpt>
      <trkpt lat="47.05377" lon="5.71348">
        <ele>239.024902</ele>
        <time>2011-04-19T14:16:41Z</time>
      </trkpt>
      <trkpt lat="47.05449" lon="5.71331">
        <ele>241.428223</ele>
        <time>2011-04-19T14:16:51Z</time>
      </trkpt>
      <trkpt lat="47.05499" lon="5.71318">
        <ele>244.792847</ele>
        <time>2011-04-19T14:16:59Z</time>
      </trkpt>
      <trkpt lat="47.05584" lon="5.71297">
        <ele>248.157593</ele>
        <time>2011-04-19T14:17:13Z</time>
      </trkpt>
      <trkpt lat="47.05681" lon="5.71274">
        <ele>248.157593</ele>
        <time>2011-04-19T14:17:29Z</time>
      </trkpt>
      <trkpt lat="47.05814" lon="5.71241">
        <ele>245.75415</ele>
        <time>2011-04-19T14:17:48Z</time>
      </trkpt>
      <trkpt lat="47.05945" lon="5.71207">
        <ele>249.118774</ele>
        <time>2011-04-19T14:18:10Z</time>
      </trkpt>
      <trkpt lat="47.06075" lon="5.71177">
        <ele>251.041382</ele>
        <time>2011-04-19T14:18:31Z</time>
      </trkpt>
      <trkpt lat="47.06198" lon="5.71144">
        <ele>252.483398</ele>
        <time>2011-04-19T14:18:52Z</time>
      </trkpt>
      <trkpt lat="47.0631" lon="5.71113">
        <ele>253.925415</ele>
        <time>2011-04-19T14:19:10Z</time>
      </trkpt>
      <trkpt lat="47.06454" lon="5.71077">
        <ele>252.963989</ele>
        <time>2011-04-19T14:19:32Z</time>
      </trkpt>
      <trkpt lat="47.06609" lon="5.71035">
        <ele>253.925415</ele>
        <time>2011-04-19T14:19:56Z</time>
      </trkpt>
      <trkpt lat="47.06677" lon="5.71018">
        <ele>253.444702</ele>
        <time>2011-04-19T14:20:13Z</time>
      </trkpt>
      <trkpt lat="47.06688" lon="5.71017">
        <ele>252.963989</ele>
        <time>2011-04-19T14:20:18Z</time>
      </trkpt>
      <trkpt lat="47.06686" lon="5.71014">
        <ele>253.444702</ele>
        <time>2011-04-19T14:20:26Z</time>
      </trkpt>
      <trkpt lat="47.06682" lon="5.71019">
        <ele>253.444702</ele>
        <time>2011-04-19T14:20:35Z</time>
      </trkpt>
      <trkpt lat="47.06681" lon="5.71018">
        <ele>252.963989</ele>
        <time>2011-04-19T14:20:51Z</time>
      </trkpt>
      <trkpt lat="47.06709" lon="5.71011">
        <ele>253.925415</ele>
        <time>2011-04-19T14:21:04Z</time>
      </trkpt>
      <trkpt lat="47.06781" lon="5.70994">
        <ele>253.925415</ele>
        <time>2011-04-19T14:21:21Z</time>
      </trkpt>
      <trkpt lat="47.06876" lon="5.70969">
        <ele>254.406006</ele>
        <time>2011-04-19T14:21:40Z</time>
      </trkpt>
      <trkpt lat="47.06973" lon="5.70947">
        <ele>253.444702</ele>
        <time>2011-04-19T14:21:57Z</time>
      </trkpt>
      <trkpt lat="47.071" lon="5.70917">
        <ele>250.560791</ele>
        <time>2011-04-19T14:22:16Z</time>
      </trkpt>
      <trkpt lat="47.07233" lon="5.70885">
        <ele>251.041382</ele>
        <time>2011-04-19T14:22:37Z</time>
      </trkpt>
      <trkpt lat="47.07337" lon="5.70858">
        <ele>253.925415</ele>
        <time>2011-04-19T14:22:56Z</time>
      </trkpt>
      <trkpt lat="47.07468" lon="5.70824">
        <ele>255.848022</ele>
        <time>2011-04-19T14:23:20Z</time>
      </trkpt>
      <trkpt lat="47.07594" lon="5.70794">
        <ele>253.925415</ele>
        <time>2011-04-19T14:23:40Z</time>
      </trkpt>
      <trkpt lat="47.0774" lon="5.70755">
        <ele>254.886597</ele>
        <time>2011-04-19T14:24:03Z</time>
      </trkpt>
      <trkpt lat="47.07829" lon="5.70733">
        <ele>251.522095</ele>
        <time>2011-04-19T14:24:16Z</time>
      </trkpt>
      <trkpt lat="47.07937" lon="5.70707">
        <ele>248.638184</ele>
        <time>2011-04-19T14:24:29Z</time>
      </trkpt>
      <trkpt lat="47.08032" lon="5.70685">
        <ele>245.273438</ele>
        <time>2011-04-19T14:24:40Z</time>
      </trkpt>
      <trkpt lat="47.08116" lon="5.70665">
        <ele>243.831543</ele>
        <time>2011-04-19T14:24:51Z</time>
      </trkpt>
      <trkpt lat="47.08175" lon="5.7065">
        <ele>247.196045</ele>
        <time>2011-04-19T14:25:01Z</time>
      </trkpt>
      <trkpt lat="47.08285" lon="5.70623">
        <ele>249.118774</ele>
        <time>2011-04-19T14:25:20Z</time>
      </trkpt>
      <trkpt lat="47.08411" lon="5.70592">
        <ele>251.041382</ele>
        <time>2011-04-19T14:25:43Z</time>
      </trkpt>
      <trkpt lat="47.08492" lon="5.70572">
        <ele>250.0802</ele>
        <time>2011-04-19T14:25:56Z</time>
      </trkpt>
      <trkpt lat="47.08532" lon="5.70562">
        <ele>250.560791</ele>
        <time>2011-04-19T14:26:02Z</time>
      </trkpt>
      <trkpt lat="47.08557" lon="5.70556">
        <ele>250.560791</ele>
        <time>2011-04-19T14:26:06Z</time>
      </trkpt>
      <trkpt lat="47.08668" lon="5.70529">
        <ele>252.002808</ele>
        <time>2011-04-19T14:26:24Z</time>
      </trkpt>
      <trkpt lat="47.08779" lon="5.70499">
        <ele>253.925415</ele>
        <time>2011-04-19T14:26:45Z</time>
      </trkpt>
      <trkpt lat="47.08803" lon="5.70502">
        <ele>254.406006</ele>
        <time>2011-04-19T14:26:57Z</time>
      </trkpt>
      <trkpt lat="47.08806" lon="5.70501">
        <ele>254.406006</ele>
        <time>2011-04-19T14:27:18Z</time>
      </trkpt>
      <trkpt lat="47.08807" lon="5.70497">
        <ele>254.406006</ele>
        <time>2011-04-19T14:27:38Z</time>
      </trkpt>
      <trkpt lat="47.08808" lon="5.70498">
        <ele>254.406006</ele>
        <time>2011-04-19T14:28:14Z</time>
      </trkpt>
      <trkpt lat="47.08833" lon="5.70495">
        <ele>255.848022</ele>
        <time>2011-04-19T14:28:28Z</time>
      </trkpt>
      <trkpt lat="47.08895" lon="5.70479">
        <ele>256.809326</ele>
        <time>2011-04-19T14:28:45Z</time>
      </trkpt>
      <trkpt lat="47.08996" lon="5.70453">
        <ele>258.731934</ele>
        <time>2011-04-19T14:29:08Z</time>
      </trkpt>
      <trkpt lat="47.09092" lon="5.70428">
        <ele>257.770752</ele>
        <time>2011-04-19T14:29:27Z</time>
      </trkpt>
      <trkpt lat="47.09214" lon="5.70394">
        <ele>258.731934</ele>
        <time>2011-04-19T14:29:49Z</time>
      </trkpt>
      <trkpt lat="47.0936" lon="5.70361">
        <ele>259.693359</ele>
        <time>2011-04-19T14:30:14Z</time>
      </trkpt>
      <trkpt lat="47.09525" lon="5.70319">
        <ele>258.731934</ele>
        <time>2011-04-19T14:30:37Z</time>
      </trkpt>
      <trkpt lat="47.09746" lon="5.70267">
        <ele>255.36731</ele>
        <time>2011-04-19T14:31:08Z</time>
      </trkpt>
      <trkpt lat="47.09892" lon="5.70231">
        <ele>256.328735</ele>
        <time>2011-04-19T14:31:30Z</time>
      </trkpt>
      <trkpt lat="47.10044" lon="5.70194">
        <ele>254.406006</ele>
        <time>2011-04-19T14:31:51Z</time>
      </trkpt>
      <trkpt lat="47.10139" lon="5.70166">
        <ele>256.328735</ele>
        <time>2011-04-19T14:32:07Z</time>
      </trkpt>
      <trkpt lat="47.10217" lon="5.7015">
        <ele>257.290039</ele>
        <time>2011-04-19T14:32:22Z</time>
      </trkpt>
      <trkpt lat="47.1036" lon="5.70116">
        <ele>257.770752</ele>
        <time>2011-04-19T14:32:43Z</time>
      </trkpt>
      <trkpt lat="47.10487" lon="5.70082">
        <ele>259.212646</ele>
        <time>2011-04-19T14:33:04Z</time>
      </trkpt>
      <trkpt lat="47.10605" lon="5.70055">
        <ele>260.654541</ele>
        <time>2011-04-19T14:33:23Z</time>
      </trkpt>
      <trkpt lat="47.10711" lon="5.70032">
        <ele>258.731934</ele>
        <time>2011-04-19T14:33:39Z</time>
      </trkpt>
      <trkpt lat="47.10854" lon="5.70003">
        <ele>255.36731</ele>
        <time>2011-04-19T14:33:56Z</time>
      </trkpt>
      <trkpt lat="47.10981" lon="5.69972">
        <ele>258.731934</ele>
        <time>2011-04-19T14:34:16Z</time>
      </trkpt>
      <trkpt lat="47.11074" lon="5.69951">
        <ele>262.096558</ele>
        <time>2011-04-19T14:34:33Z</time>
      </trkpt>
      <trkpt lat="47.11238" lon="5.69906">
        <ele>262.577148</ele>
        <time>2011-04-19T14:35:01Z</time>
      </trkpt>
      <trkpt lat="47.11369" lon="5.69872">
        <ele>262.577148</ele>
        <time>2011-04-19T14:35:20Z</time>
      </trkpt>
      <trkpt lat="47.11509" lon="5.69834">
        <ele>260.17395</ele>
        <time>2011-04-19T14:35:39Z</time>
      </trkpt>
      <trkpt lat="47.11678" lon="5.69792">
        <ele>259.693359</ele>
        <time>2011-04-19T14:36:00Z</time>
      </trkpt>
      <trkpt lat="47.11832" lon="5.69754">
        <ele>258.731934</ele>
        <time>2011-04-19T14:36:18Z</time>
      </trkpt>
      <trkpt lat="47.11846" lon="5.69751">
        <ele>259.693359</ele>
        <time>2011-04-19T14:36:20Z</time>
      </trkpt>
      <trkpt lat="47.1199" lon="5.69716">
        <ele>258.731934</ele>
        <time>2011-04-19T14:36:41Z</time>
      </trkpt>
      <trkpt lat="47.12054" lon="5.69699">
        <ele>255.36731</ele>
        <time>2011-04-19T14:36:49Z</time>
      </trkpt>
      <trkpt lat="47.12063" lon="5.69697">
        <ele>254.886597</ele>
        <time>2011-04-19T14:36:50Z</time>
      </trkpt>
      <trkpt lat="47.12155" lon="5.69675">
        <ele>255.36731</ele>
        <time>2011-04-19T14:37:03Z</time>
      </trkpt>
      <trkpt lat="47.1229" lon="5.69643">
        <ele>253.444702</ele>
        <time>2011-04-19T14:37:21Z</time>
      </trkpt>
      <trkpt lat="47.12321" lon="5.69635">
        <ele>252.002808</ele>
        <time>2011-04-19T14:37:25Z</time>
      </trkpt>
      <trkpt lat="47.12393" lon="5.69626">
        <ele>249.599487</ele>
        <time>2011-04-19T14:37:34Z</time>
      </trkpt>
      <trkpt lat="47.12426" lon="5.69623">
        <ele>248.638184</ele>
        <time>2011-04-19T14:37:38Z</time>
      </trkpt>
      <trkpt lat="47.12469" lon="5.69588">
        <ele>246.715454</ele>
        <time>2011-04-19T14:37:44Z</time>
      </trkpt>
      <trkpt lat="47.12482" lon="5.69556">
        <ele>244.792847</ele>
        <time>2011-04-19T14:37:47Z</time>
      </trkpt>
      <trkpt lat="47.12496" lon="5.69495">
        <ele>240.947632</ele>
        <time>2011-04-19T14:37:52Z</time>
      </trkpt>
      <trkpt lat="47.12514" lon="5.6944">
        <ele>237.582886</ele>
        <time>2011-04-19T14:37:57Z</time>
      </trkpt>
      <trkpt lat="47.1253" lon="5.69412">
        <ele>235.660278</ele>
        <time>2011-04-19T14:38:00Z</time>
      </trkpt>
      <trkpt lat="47.12552" lon="5.69383">
        <ele>232.295776</ele>
        <time>2011-04-19T14:38:04Z</time>
      </trkpt>
      <trkpt lat="47.12573" lon="5.69356">
        <ele>230.373047</ele>
        <time>2011-04-19T14:38:08Z</time>
      </trkpt>
      <trkpt lat="47.12594" lon="5.69336">
        <ele>228.450439</ele>
        <time>2011-04-19T14:38:11Z</time>
      </trkpt>
      <trkpt lat="47.12637" lon="5.69311">
        <ele>226.047119</ele>
        <time>2011-04-19T14:38:16Z</time>
      </trkpt>
      <trkpt lat="47.12695" lon="5.69286">
        <ele>223.163208</ele>
        <time>2011-04-19T14:38:23Z</time>
      </trkpt>
      <trkpt lat="47.12741" lon="5.69261">
        <ele>222.682495</ele>
        <time>2011-04-19T14:38:31Z</time>
      </trkpt>
      <trkpt lat="47.12759" lon="5.69253">
        <ele>223.643799</ele>
        <time>2011-04-19T14:38:34Z</time>
      </trkpt>
      <trkpt lat="47.12832" lon="5.69223">
        <ele>226.527832</ele>
        <time>2011-04-19T14:38:48Z</time>
      </trkpt>
      <trkpt lat="47.12871" lon="5.69205">
        <ele>229.411743</ele>
        <time>2011-04-19T14:38:57Z</time>
      </trkpt>
      <trkpt lat="47.12911" lon="5.69181">
        <ele>232.295776</ele>
        <time>2011-04-19T14:39:08Z</time>
      </trkpt>
      <trkpt lat="47.12922" lon="5.69166">
        <ele>233.25708</ele>
        <time>2011-04-19T14:39:20Z</time>
      </trkpt>
      <trkpt lat="47.12939" lon="5.69152">
        <ele>231.814941</ele>
        <time>2011-04-19T14:39:45Z</time>
      </trkpt>
      <trkpt lat="47.12978" lon="5.69134">
        <ele>228.931152</ele>
        <time>2011-04-19T14:39:53Z</time>
      </trkpt>
      <trkpt lat="47.12984" lon="5.69132">
        <ele>228.931152</ele>
        <time>2011-04-19T14:39:54Z</time>
      </trkpt>
      <trkpt lat="47.13037" lon="5.6912">
        <ele>225.085938</ele>
        <time>2011-04-19T14:40:03Z</time>
      </trkpt>
      <trkpt lat="47.13052" lon="5.69117">
        <ele>224.605225</ele>
        <time>2011-04-19T14:40:06Z</time>
      </trkpt>
      <trkpt lat="47.13076" lon="5.69073">
        <ele>222.201782</ele>
        <time>2011-04-19T14:40:14Z</time>
      </trkpt>
      <trkpt lat="47.13076" lon="5.69066">
        <ele>221.240601</ele>
        <time>2011-04-19T14:40:15Z</time>
      </trkpt>
      <trkpt lat="47.13077" lon="5.6905">
        <ele>221.240601</ele>
        <time>2011-04-19T14:40:17Z</time>
      </trkpt>
      <trkpt lat="47.13087" lon="5.69014">
        <ele>219.317993</ele>
        <time>2011-04-19T14:40:21Z</time>
      </trkpt>
      <trkpt lat="47.13101" lon="5.68984">
        <ele>216.43396</ele>
        <time>2011-04-19T14:40:24Z</time>
      </trkpt>
      <trkpt lat="47.13142" lon="5.68927">
        <ele>215.472656</ele>
        <time>2011-04-19T14:40:30Z</time>
      </trkpt>
      <trkpt lat="47.13166" lon="5.68876">
        <ele>214.03064</ele>
        <time>2011-04-19T14:40:35Z</time>
      </trkpt>
      <trkpt lat="47.13233" lon="5.68634">
        <ele>213.550049</ele>
        <time>2011-04-19T14:40:59Z</time>
      </trkpt>
      <trkpt lat="47.13231" lon="5.6842">
        <ele>213.069336</ele>
        <time>2011-04-19T14:41:20Z</time>
      </trkpt>
      <trkpt lat="47.13226" lon="5.68199">
        <ele>214.03064</ele>
        <time>2011-04-19T14:41:43Z</time>
      </trkpt>
      <trkpt lat="47.13215" lon="5.68005">
        <ele>213.550049</ele>
        <time>2011-04-19T14:42:03Z</time>
      </trkpt>
      <trkpt lat="47.13209" lon="5.67864">
        <ele>214.51123</ele>
        <time>2011-04-19T14:42:17Z</time>
      </trkpt>
      <trkpt lat="47.13231" lon="5.67801">
        <ele>214.51123</ele>
        <time>2011-04-19T14:42:24Z</time>
      </trkpt>
      <trkpt lat="47.13357" lon="5.67625">
        <ele>214.03064</ele>
        <time>2011-04-19T14:42:48Z</time>
      </trkpt>
      <trkpt lat="47.13433" lon="5.67511">
        <ele>214.03064</ele>
        <time>2011-04-19T14:43:02Z</time>
      </trkpt>
      <trkpt lat="47.13469" lon="5.6738">
        <ele>214.51123</ele>
        <time>2011-04-19T14:43:16Z</time>
      </trkpt>
      <trkpt lat="47.13514" lon="5.67219">
        <ele>212.588623</ele>
        <time>2011-04-19T14:43:33Z</time>
      </trkpt>
      <trkpt lat="47.13579" lon="5.6697">
        <ele>211.627441</ele>
        <time>2011-04-19T14:43:59Z</time>
      </trkpt>
      <trkpt lat="47.13643" lon="5.66735">
        <ele>211.627441</ele>
        <time>2011-04-19T14:44:24Z</time>
      </trkpt>
      <trkpt lat="47.13689" lon="5.66537">
        <ele>212.108032</ele>
        <time>2011-04-19T14:44:45Z</time>
      </trkpt>
      <trkpt lat="47.13715" lon="5.66302">
        <ele>211.627441</ele>
        <time>2011-04-19T14:45:09Z</time>
      </trkpt>
      <trkpt lat="47.13734" lon="5.66068">
        <ele>212.108032</ele>
        <time>2011-04-19T14:45:30Z</time>
      </trkpt>
      <trkpt lat="47.13761" lon="5.65884">
        <ele>210.185425</ele>
        <time>2011-04-19T14:45:46Z</time>
      </trkpt>
      <trkpt lat="47.13756" lon="5.65776">
        <ele>210.185425</ele>
        <time>2011-04-19T14:45:57Z</time>
      </trkpt>
      <trkpt lat="47.13752" lon="5.6575">
        <ele>210.666016</ele>
        <time>2011-04-19T14:46:00Z</time>
      </trkpt>
      <trkpt lat="47.13769" lon="5.65699">
        <ele>210.666016</ele>
        <time>2011-04-19T14:46:07Z</time>
      </trkpt>
      <trkpt lat="47.13878" lon="5.65555">
        <ele>211.146729</ele>
        <time>2011-04-19T14:46:31Z</time>
      </trkpt>
      <trkpt lat="47.13905" lon="5.65529">
        <ele>211.146729</ele>
        <time>2011-04-19T14:46:36Z</time>
      </trkpt>
      <trkpt lat="47.13998" lon="5.65512">
        <ele>211.146729</ele>
        <time>2011-04-19T14:46:50Z</time>
      </trkpt>
      <trkpt lat="47.14034" lon="5.65514">
        <ele>210.666016</ele>
        <time>2011-04-19T14:46:56Z</time>
      </trkpt>
      <trkpt lat="47.1413" lon="5.65543">
        <ele>210.185425</ele>
        <time>2011-04-19T14:47:15Z</time>
      </trkpt>
      <trkpt lat="47.14262" lon="5.65573">
        <ele>210.666016</ele>
        <time>2011-04-19T14:47:37Z</time>
      </trkpt>
      <trkpt lat="47.14424" lon="5.65598">
        <ele>212.108032</ele>
        <time>2011-04-19T14:48:02Z</time>
      </trkpt>
      <trkpt lat="47.14503" lon="5.65608">
        <ele>214.03064</ele>
        <time>2011-04-19T14:48:17Z</time>
      </trkpt>
      <trkpt lat="47.14595" lon="5.65622">
        <ele>213.069336</ele>
        <time>2011-04-19T14:48:39Z</time>
      </trkpt>
      <trkpt lat="47.14603" lon="5.65607">
        <ele>212.588623</ele>
        <time>2011-04-19T14:48:47Z</time>
      </trkpt>
      <trkpt lat="47.14604" lon="5.65602">
        <ele>211.627441</ele>
        <time>2011-04-19T14:49:02Z</time>
      </trkpt>
      <trkpt lat="47.14607" lon="5.65559">
        <ele>210.666016</ele>
        <time>2011-04-19T14:49:12Z</time>
      </trkpt>
      <trkpt lat="47.14603" lon="5.65498">
        <ele>210.666016</ele>
        <time>2011-04-19T14:49:24Z</time>
      </trkpt>
      <trkpt lat="47.14617" lon="5.65384">
        <ele>210.185425</ele>
        <time>2011-04-19T14:49:42Z</time>
      </trkpt>
      <trkpt lat="47.14654" lon="5.65273">
        <ele>210.185425</ele>
        <time>2011-04-19T14:49:58Z</time>
      </trkpt>
      <trkpt lat="47.14681" lon="5.65203">
        <ele>210.666016</ele>
        <time>2011-04-19T14:50:08Z</time>
      </trkpt>
      <trkpt lat="47.14683" lon="5.65073">
        <ele>210.666016</ele>
        <time>2011-04-19T14:50:24Z</time>
      </trkpt>
      <trkpt lat="47.14681" lon="5.64881">
        <ele>210.185425</ele>
        <time>2011-04-19T14:50:46Z</time>
      </trkpt>
      <trkpt lat="47.14665" lon="5.64674">
        <ele>210.185425</ele>
        <time>2011-04-19T14:51:10Z</time>
      </trkpt>
      <trkpt lat="47.14641" lon="5.64479">
        <ele>209.704834</ele>
        <time>2011-04-19T14:51:32Z</time>
      </trkpt>
      <trkpt lat="47.1461" lon="5.6429">
        <ele>209.704834</ele>
        <time>2011-04-19T14:51:53Z</time>
      </trkpt>
      <trkpt lat="47.14602" lon="5.64246">
        <ele>209.704834</ele>
        <time>2011-04-19T14:51:58Z</time>
      </trkpt>
      <trkpt lat="47.14592" lon="5.64212">
        <ele>210.185425</ele>
        <time>2011-04-19T14:52:02Z</time>
      </trkpt>
      <trkpt lat="47.1459" lon="5.64175">
        <ele>210.185425</ele>
        <time>2011-04-19T14:52:06Z</time>
      </trkpt>
      <trkpt lat="47.14558" lon="5.63979">
        <ele>209.224121</ele>
        <time>2011-04-19T14:52:28Z</time>
      </trkpt>
      <trkpt lat="47.14524" lon="5.63765">
        <ele>209.224121</ele>
        <time>2011-04-19T14:52:52Z</time>
      </trkpt>
      <trkpt lat="47.14482" lon="5.6352">
        <ele>209.704834</ele>
        <time>2011-04-19T14:53:19Z</time>
      </trkpt>
      <trkpt lat="47.14443" lon="5.63256">
        <ele>209.704834</ele>
        <time>2011-04-19T14:53:46Z</time>
      </trkpt>
      <trkpt lat="47.14402" lon="5.63006">
        <ele>209.224121</ele>
        <time>2011-04-19T14:54:11Z</time>
      </trkpt>
      <trkpt lat="47.14369" lon="5.62815">
        <ele>208.743408</ele>
        <time>2011-04-19T14:54:33Z</time>
      </trkpt>
      <trkpt lat="47.14355" lon="5.62754">
        <ele>211.627441</ele>
        <time>2011-04-19T14:54:41Z</time>
      </trkpt>
      <trkpt lat="47.14368" lon="5.62731">
        <ele>212.108032</ele>
        <time>2011-04-19T14:54:46Z</time>
      </trkpt>
      <trkpt lat="47.14378" lon="5.62727">
        <ele>211.627441</ele>
        <time>2011-04-19T14:54:49Z</time>
      </trkpt>
      <trkpt lat="47.14372" lon="5.62677">
        <ele>209.704834</ele>
        <time>2011-04-19T14:54:56Z</time>
      </trkpt>
      <trkpt lat="47.14344" lon="5.62517">
        <ele>208.262817</ele>
        <time>2011-04-19T14:55:14Z</time>
      </trkpt>
      <trkpt lat="47.14314" lon="5.62345">
        <ele>208.262817</ele>
        <time>2011-04-19T14:55:34Z</time>
      </trkpt>
      <trkpt lat="47.14288" lon="5.62184">
        <ele>208.262817</ele>
        <time>2011-04-19T14:55:52Z</time>
      </trkpt>
      <trkpt lat="47.14263" lon="5.62028">
        <ele>208.262817</ele>
        <time>2011-04-19T14:56:09Z</time>
      </trkpt>
      <trkpt lat="47.14229" lon="5.61808">
        <ele>208.262817</ele>
        <time>2011-04-19T14:56:32Z</time>
      </trkpt>
      <trkpt lat="47.14189" lon="5.61565">
        <ele>208.262817</ele>
        <time>2011-04-19T14:56:57Z</time>
      </trkpt>
      <trkpt lat="47.1415" lon="5.61331">
        <ele>208.262817</ele>
        <time>2011-04-19T14:57:20Z</time>
      </trkpt>
      <trkpt lat="47.14111" lon="5.61099">
        <ele>208.262817</ele>
        <time>2011-04-19T14:57:42Z</time>
      </trkpt>
      <trkpt lat="47.14076" lon="5.60881">
        <ele>208.262817</ele>
        <time>2011-04-19T14:58:02Z</time>
      </trkpt>
      <trkpt lat="47.14051" lon="5.60743">
        <ele>207.782104</ele>
        <time>2011-04-19T14:58:16Z</time>
      </trkpt>
      <trkpt lat="47.14033" lon="5.60656">
        <ele>207.782104</ele>
        <time>2011-04-19T14:58:26Z</time>
      </trkpt>
      <trkpt lat="47.14019" lon="5.6059">
        <ele>208.262817</ele>
        <time>2011-04-19T14:58:35Z</time>
      </trkpt>
      <trkpt lat="47.14018" lon="5.6056">
        <ele>208.262817</ele>
        <time>2011-04-19T14:58:39Z</time>
      </trkpt>
      <trkpt lat="47.1401" lon="5.60493">
        <ele>207.301392</ele>
        <time>2011-04-19T14:58:47Z</time>
      </trkpt>
      <trkpt lat="47.14005" lon="5.60414">
        <ele>206.340088</ele>
        <time>2011-04-19T14:58:56Z</time>
      </trkpt>
      <trkpt lat="47.13965" lon="5.60272">
        <ele>206.820679</ele>
        <time>2011-04-19T14:59:13Z</time>
      </trkpt>
      <trkpt lat="47.13901" lon="5.60067">
        <ele>206.820679</ele>
        <time>2011-04-19T14:59:35Z</time>
      </trkpt>
      <trkpt lat="47.13828" lon="5.59889">
        <ele>206.820679</ele>
        <time>2011-04-19T14:59:55Z</time>
      </trkpt>
      <trkpt lat="47.13744" lon="5.59731">
        <ele>206.820679</ele>
        <time>2011-04-19T15:00:14Z</time>
      </trkpt>
      <trkpt lat="47.13664" lon="5.59596">
        <ele>206.820679</ele>
        <time>2011-04-19T15:00:31Z</time>
      </trkpt>
      <trkpt lat="47.13598" lon="5.59474">
        <ele>206.340088</ele>
        <time>2011-04-19T15:00:46Z</time>
      </trkpt>
      <trkpt lat="47.13577" lon="5.59437">
        <ele>205.859497</ele>
        <time>2011-04-19T15:00:51Z</time>
      </trkpt>
      <trkpt lat="47.13548" lon="5.59345">
        <ele>206.820679</ele>
        <time>2011-04-19T15:01:02Z</time>
      </trkpt>
      <trkpt lat="47.13533" lon="5.59319">
        <ele>207.301392</ele>
        <time>2011-04-19T15:01:07Z</time>
      </trkpt>
      <trkpt lat="47.13484" lon="5.59201">
        <ele>206.340088</ele>
        <time>2011-04-19T15:01:21Z</time>
      </trkpt>
      <trkpt lat="47.13362" lon="5.58917">
        <ele>206.820679</ele>
        <time>2011-04-19T15:01:51Z</time>
      </trkpt>
      <trkpt lat="47.13315" lon="5.58768">
        <ele>207.301392</ele>
        <time>2011-04-19T15:02:06Z</time>
      </trkpt>
      <trkpt lat="47.13336" lon="5.58593">
        <ele>207.301392</ele>
        <time>2011-04-19T15:02:20Z</time>
      </trkpt>
      <trkpt lat="47.13359" lon="5.58422">
        <ele>206.340088</ele>
        <time>2011-04-19T15:02:36Z</time>
      </trkpt>
      <trkpt lat="47.13392" lon="5.58181">
        <ele>206.340088</ele>
        <time>2011-04-19T15:02:57Z</time>
      </trkpt>
      <trkpt lat="47.13402" lon="5.58076">
        <ele>207.301392</ele>
        <time>2011-04-19T15:03:05Z</time>
      </trkpt>
      <trkpt lat="47.13413" lon="5.57941">
        <ele>206.340088</ele>
        <time>2011-04-19T15:03:16Z</time>
      </trkpt>
      <trkpt lat="47.13418" lon="5.57856">
        <ele>205.378784</ele>
        <time>2011-04-19T15:03:24Z</time>
      </trkpt>
      <trkpt lat="47.13386" lon="5.57728">
        <ele>205.378784</ele>
        <time>2011-04-19T15:03:37Z</time>
      </trkpt>
      <trkpt lat="47.13317" lon="5.57633">
        <ele>205.378784</ele>
        <time>2011-04-19T15:03:50Z</time>
      </trkpt>
      <trkpt lat="47.13281" lon="5.57593">
        <ele>204.41748</ele>
        <time>2011-04-19T15:03:56Z</time>
      </trkpt>
      <trkpt lat="47.13171" lon="5.57397">
        <ele>205.378784</ele>
        <time>2011-04-19T15:04:19Z</time>
      </trkpt>
      <trkpt lat="47.13102" lon="5.57215">
        <ele>205.859497</ele>
        <time>2011-04-19T15:04:38Z</time>
      </trkpt>
      <trkpt lat="47.13025" lon="5.57093">
        <ele>205.378784</ele>
        <time>2011-04-19T15:04:53Z</time>
      </trkpt>
      <trkpt lat="47.12963" lon="5.56958">
        <ele>204.898071</ele>
        <time>2011-04-19T15:05:09Z</time>
      </trkpt>
      <trkpt lat="47.12915" lon="5.56868">
        <ele>204.898071</ele>
        <time>2011-04-19T15:05:20Z</time>
      </trkpt>
      <trkpt lat="47.12828" lon="5.56738">
        <ele>204.898071</ele>
        <time>2011-04-19T15:05:39Z</time>
      </trkpt>
      <trkpt lat="47.12751" lon="5.56617">
        <ele>205.378784</ele>
        <time>2011-04-19T15:05:56Z</time>
      </trkpt>
      <trkpt lat="47.12673" lon="5.56505">
        <ele>205.859497</ele>
        <time>2011-04-19T15:06:12Z</time>
      </trkpt>
      <trkpt lat="47.12572" lon="5.56418">
        <ele>205.859497</ele>
        <time>2011-04-19T15:06:28Z</time>
      </trkpt>
      <trkpt lat="47.12512" lon="5.56351">
        <ele>205.859497</ele>
        <time>2011-04-19T15:06:38Z</time>
      </trkpt>
      <trkpt lat="47.12483" lon="5.5633">
        <ele>205.378784</ele>
        <time>2011-04-19T15:06:43Z</time>
      </trkpt>
      <trkpt lat="47.12453" lon="5.56308">
        <ele>205.378784</ele>
        <time>2011-04-19T15:06:53Z</time>
      </trkpt>
      <trkpt lat="47.12452" lon="5.56308">
        <ele>204.898071</ele>
        <time>2011-04-19T15:07:25Z</time>
      </trkpt>
      <trkpt lat="47.12457" lon="5.56303">
        <ele>205.378784</ele>
        <time>2011-04-19T15:11:29Z</time>
      </trkpt>
      <trkpt lat="47.12485" lon="5.56323">
        <ele>205.859497</ele>
        <time>2011-04-19T15:11:40Z</time>
      </trkpt>
      <trkpt lat="47.12514" lon="5.56344">
        <ele>205.859497</ele>
        <time>2011-04-19T15:11:46Z</time>
      </trkpt>
      <trkpt lat="47.12567" lon="5.56407">
        <ele>204.898071</ele>
        <time>2011-04-19T15:11:57Z</time>
      </trkpt>
      <trkpt lat="47.1258" lon="5.56421">
        <ele>205.378784</ele>
        <time>2011-04-19T15:12:00Z</time>
      </trkpt>
      <trkpt lat="47.126" lon="5.56436">
        <ele>205.378784</ele>
        <time>2011-04-19T15:12:04Z</time>
      </trkpt>
      <trkpt lat="47.12647" lon="5.56468">
        <ele>204.41748</ele>
        <time>2011-04-19T15:12:15Z</time>
      </trkpt>
      <trkpt lat="47.12658" lon="5.56476">
        <ele>204.41748</ele>
        <time>2011-04-19T15:12:18Z</time>
      </trkpt>
      <trkpt lat="47.12672" lon="5.56488">
        <ele>203.93689</ele>
        <time>2011-04-19T15:12:28Z</time>
      </trkpt>
      <trkpt lat="47.12675" lon="5.5649">
        <ele>204.41748</ele>
        <time>2011-04-19T15:17:57Z</time>
      </trkpt>
      <trkpt lat="47.12668" lon="5.56487">
        <ele>204.41748</ele>
        <time>2011-04-19T15:18:01Z</time>
      </trkpt>
      <trkpt lat="47.12625" lon="5.56461">
        <ele>204.898071</ele>
        <time>2011-04-19T15:18:17Z</time>
      </trkpt>
      <trkpt lat="47.12552" lon="5.56407">
        <ele>204.898071</ele>
        <time>2011-04-19T15:18:38Z</time>
      </trkpt>
      <trkpt lat="47.12498" lon="5.56352">
        <ele>204.898071</ele>
        <time>2011-04-19T15:18:51Z</time>
      </trkpt>
      <trkpt lat="47.12455" lon="5.5632">
        <ele>205.859497</ele>
        <time>2011-04-19T15:19:05Z</time>
      </trkpt>
      <trkpt lat="47.12445" lon="5.56314">
        <ele>205.859497</ele>
        <time>2011-04-19T15:19:08Z</time>
      </trkpt>
      <trkpt lat="47.12384" lon="5.56276">
        <ele>203.93689</ele>
        <time>2011-04-19T15:19:21Z</time>
      </trkpt>
      <trkpt lat="47.12321" lon="5.56206">
        <ele>204.41748</ele>
        <time>2011-04-19T15:19:36Z</time>
      </trkpt>
      <trkpt lat="47.12232" lon="5.56072">
        <ele>204.41748</ele>
        <time>2011-04-19T15:19:59Z</time>
      </trkpt>
      <trkpt lat="47.12134" lon="5.55929">
        <ele>204.41748</ele>
        <time>2011-04-19T15:20:23Z</time>
      </trkpt>
      <trkpt lat="47.1201" lon="5.55753">
        <ele>204.41748</ele>
        <time>2011-04-19T15:20:51Z</time>
      </trkpt>
      <trkpt lat="47.119" lon="5.55593">
        <ele>204.41748</ele>
        <time>2011-04-19T15:21:15Z</time>
      </trkpt>
      <trkpt lat="47.11781" lon="5.55426">
        <ele>204.41748</ele>
        <time>2011-04-19T15:21:41Z</time>
      </trkpt>
      <trkpt lat="47.1162" lon="5.55202">
        <ele>204.41748</ele>
        <time>2011-04-19T15:22:16Z</time>
      </trkpt>
      <trkpt lat="47.11496" lon="5.55034">
        <ele>203.93689</ele>
        <time>2011-04-19T15:22:42Z</time>
      </trkpt>
      <trkpt lat="47.11352" lon="5.54835">
        <ele>204.41748</ele>
        <time>2011-04-19T15:23:12Z</time>
      </trkpt>
      <trkpt lat="47.11324" lon="5.5481">
        <ele>204.41748</ele>
        <time>2011-04-19T15:23:17Z</time>
      </trkpt>
      <trkpt lat="47.11202" lon="5.54759">
        <ele>203.93689</ele>
        <time>2011-04-19T15:23:36Z</time>
      </trkpt>
      <trkpt lat="47.11038" lon="5.54698">
        <ele>203.93689</ele>
        <time>2011-04-19T15:24:01Z</time>
      </trkpt>
      <trkpt lat="47.10903" lon="5.54644">
        <ele>203.93689</ele>
        <time>2011-04-19T15:24:22Z</time>
      </trkpt>
      <trkpt lat="47.10759" lon="5.54584">
        <ele>203.93689</ele>
        <time>2011-04-19T15:24:44Z</time>
      </trkpt>
      <trkpt lat="47.10585" lon="5.54515">
        <ele>204.41748</ele>
        <time>2011-04-19T15:25:10Z</time>
      </trkpt>
      <trkpt lat="47.10421" lon="5.54449">
        <ele>203.93689</ele>
        <time>2011-04-19T15:25:35Z</time>
      </trkpt>
      <trkpt lat="47.10267" lon="5.54386">
        <ele>204.41748</ele>
        <time>2011-04-19T15:25:58Z</time>
      </trkpt>
      <trkpt lat="47.1012" lon="5.54328">
        <ele>204.41748</ele>
        <time>2011-04-19T15:26:20Z</time>
      </trkpt>
      <trkpt lat="47.10003" lon="5.54256">
        <ele>204.41748</ele>
        <time>2011-04-19T15:26:38Z</time>
      </trkpt>
      <trkpt lat="47.09922" lon="5.54173">
        <ele>203.93689</ele>
        <time>2011-04-19T15:26:52Z</time>
      </trkpt>
      <trkpt lat="47.09843" lon="5.54033">
        <ele>204.41748</ele>
        <time>2011-04-19T15:27:10Z</time>
      </trkpt>
      <trkpt lat="47.09783" lon="5.53867">
        <ele>204.898071</ele>
        <time>2011-04-19T15:27:29Z</time>
      </trkpt>
      <trkpt lat="47.09764" lon="5.53807">
        <ele>204.898071</ele>
        <time>2011-04-19T15:27:37Z</time>
      </trkpt>
      <trkpt lat="47.09757" lon="5.53775">
        <ele>204.898071</ele>
        <time>2011-04-19T15:27:42Z</time>
      </trkpt>
      <trkpt lat="47.09759" lon="5.53761">
        <ele>205.378784</ele>
        <time>2011-04-19T15:27:45Z</time>
      </trkpt>
      <trkpt lat="47.09747" lon="5.53695">
        <ele>204.898071</ele>
        <time>2011-04-19T15:27:56Z</time>
      </trkpt>
      <trkpt lat="47.09701" lon="5.53475">
        <ele>203.93689</ele>
        <time>2011-04-19T15:28:19Z</time>
      </trkpt>
      <trkpt lat="47.09663" lon="5.53278">
        <ele>203.93689</ele>
        <time>2011-04-19T15:28:40Z</time>
      </trkpt>
      <trkpt lat="47.09647" lon="5.53201">
        <ele>203.456177</ele>
        <time>2011-04-19T15:28:49Z</time>
      </trkpt>
      <trkpt lat="47.09636" lon="5.53176">
        <ele>203.93689</ele>
        <time>2011-04-19T15:28:53Z</time>
      </trkpt>
      <trkpt lat="47.09635" lon="5.53141">
        <ele>203.93689</ele>
        <time>2011-04-19T15:28:57Z</time>
      </trkpt>
      <trkpt lat="47.096" lon="5.52968">
        <ele>203.93689</ele>
        <time>2011-04-19T15:29:14Z</time>
      </trkpt>
      <trkpt lat="47.09564" lon="5.52782">
        <ele>203.456177</ele>
        <time>2011-04-19T15:29:34Z</time>
      </trkpt>
      <trkpt lat="47.09546" lon="5.52689">
        <ele>205.859497</ele>
        <time>2011-04-19T15:29:48Z</time>
      </trkpt>
      <trkpt lat="47.09543" lon="5.52681">
        <ele>206.340088</ele>
        <time>2011-04-19T15:29:52Z</time>
      </trkpt>
      <trkpt lat="47.09529" lon="5.52683">
        <ele>206.340088</ele>
        <time>2011-04-19T15:30:00Z</time>
      </trkpt>
      <trkpt lat="47.09511" lon="5.52637">
        <ele>204.41748</ele>
        <time>2011-04-19T15:30:08Z</time>
      </trkpt>
      <trkpt lat="47.09469" lon="5.52426">
        <ele>203.456177</ele>
        <time>2011-04-19T15:30:29Z</time>
      </trkpt>
      <trkpt lat="47.09426" lon="5.5222">
        <ele>203.93689</ele>
        <time>2011-04-19T15:30:51Z</time>
      </trkpt>
      <trkpt lat="47.09391" lon="5.52049">
        <ele>203.93689</ele>
        <time>2011-04-19T15:31:09Z</time>
      </trkpt>
      <trkpt lat="47.09345" lon="5.51823">
        <ele>203.456177</ele>
        <time>2011-04-19T15:31:32Z</time>
      </trkpt>
      <trkpt lat="47.093" lon="5.51599">
        <ele>203.456177</ele>
        <time>2011-04-19T15:31:55Z</time>
      </trkpt>
      <trkpt lat="47.09282" lon="5.51459">
        <ele>203.93689</ele>
        <time>2011-04-19T15:32:09Z</time>
      </trkpt>
      <trkpt lat="47.09277" lon="5.51335">
        <ele>203.93689</ele>
        <time>2011-04-19T15:32:21Z</time>
      </trkpt>
      <trkpt lat="47.09283" lon="5.51149">
        <ele>203.93689</ele>
        <time>2011-04-19T15:32:39Z</time>
      </trkpt>
      <trkpt lat="47.09295" lon="5.50969">
        <ele>203.93689</ele>
        <time>2011-04-19T15:32:56Z</time>
      </trkpt>
      <trkpt lat="47.09297" lon="5.50903">
        <ele>203.93689</ele>
        <time>2011-04-19T15:33:03Z</time>
      </trkpt>
      <trkpt lat="47.09305" lon="5.5087">
        <ele>202.975464</ele>
        <time>2011-04-19T15:33:08Z</time>
      </trkpt>
      <trkpt lat="47.09301" lon="5.50831">
        <ele>203.456177</ele>
        <time>2011-04-19T15:33:15Z</time>
      </trkpt>
      <trkpt lat="47.09301" lon="5.50801">
        <ele>203.456177</ele>
        <time>2011-04-19T15:33:19Z</time>
      </trkpt>
      <trkpt lat="47.09313" lon="5.50652">
        <ele>203.93689</ele>
        <time>2011-04-19T15:33:34Z</time>
      </trkpt>
      <trkpt lat="47.0932" lon="5.50497">
        <ele>203.93689</ele>
        <time>2011-04-19T15:33:51Z</time>
      </trkpt>
      <trkpt lat="47.09319" lon="5.5048">
        <ele>203.456177</ele>
        <time>2011-04-19T15:33:53Z</time>
      </trkpt>
      <trkpt lat="47.09314" lon="5.50454">
        <ele>202.014282</ele>
        <time>2011-04-19T15:33:56Z</time>
      </trkpt>
      <trkpt lat="47.09303" lon="5.50442">
        <ele>201.533569</ele>
        <time>2011-04-19T15:33:59Z</time>
      </trkpt>
      <trkpt lat="47.09294" lon="5.5042">
        <ele>202.014282</ele>
        <time>2011-04-19T15:34:04Z</time>
      </trkpt>
      <trkpt lat="47.09312" lon="5.50335">
        <ele>202.494873</ele>
        <time>2011-04-19T15:34:15Z</time>
      </trkpt>
      <trkpt lat="47.09339" lon="5.50298">
        <ele>204.898071</ele>
        <time>2011-04-19T15:34:23Z</time>
      </trkpt>
      <trkpt lat="47.09348" lon="5.50297">
        <ele>204.898071</ele>
        <time>2011-04-19T15:34:26Z</time>
      </trkpt>
      <trkpt lat="47.09355" lon="5.5028">
        <ele>204.41748</ele>
        <time>2011-04-19T15:34:30Z</time>
      </trkpt>
      <trkpt lat="47.09357" lon="5.50237">
        <ele>203.93689</ele>
        <time>2011-04-19T15:34:35Z</time>
      </trkpt>
      <trkpt lat="47.09358" lon="5.50178">
        <ele>203.456177</ele>
        <time>2011-04-19T15:34:42Z</time>
      </trkpt>
      <trkpt lat="47.0936" lon="5.50152">
        <ele>203.456177</ele>
        <time>2011-04-19T15:34:45Z</time>
      </trkpt>
      <trkpt lat="47.09367" lon="5.50071">
        <ele>202.975464</ele>
        <time>2011-04-19T15:34:55Z</time>
      </trkpt>
      <trkpt lat="47.09373" lon="5.50023">
        <ele>202.494873</ele>
        <time>2011-04-19T15:35:06Z</time>
      </trkpt>
      <trkpt lat="47.09375" lon="5.49993">
        <ele>203.456177</ele>
        <time>2011-04-19T15:35:37Z</time>
      </trkpt>
      <trkpt lat="47.09376" lon="5.49954">
        <ele>203.456177</ele>
        <time>2011-04-19T15:35:43Z</time>
      </trkpt>
      <trkpt lat="47.09361" lon="5.49898">
        <ele>206.340088</ele>
        <time>2011-04-19T15:35:55Z</time>
      </trkpt>
      <trkpt lat="47.09358" lon="5.49896">
        <ele>205.859497</ele>
        <time>2011-04-19T15:36:09Z</time>
      </trkpt>
      <trkpt lat="47.09358" lon="5.49896">
        <ele>205.859497</ele>
        <time>2011-04-19T15:36:10Z</time>
      </trkpt>
      <trkpt lat="47.09329" lon="5.49932">
        <ele>205.859497</ele>
        <time>2011-04-19T15:36:24Z</time>
      </trkpt>
      <trkpt lat="47.09312" lon="5.49925">
        <ele>204.898071</ele>
        <time>2011-04-19T15:36:29Z</time>
      </trkpt>
      <trkpt lat="47.09261" lon="5.49875">
        <ele>203.93689</ele>
        <time>2011-04-19T15:36:42Z</time>
      </trkpt>
      <trkpt lat="47.09194" lon="5.49814">
        <ele>203.93689</ele>
        <time>2011-04-19T15:36:55Z</time>
      </trkpt>
      <trkpt lat="47.09148" lon="5.49776">
        <ele>203.456177</ele>
        <time>2011-04-19T15:37:06Z</time>
      </trkpt>
      <trkpt lat="47.09114" lon="5.49751">
        <ele>203.93689</ele>
        <time>2011-04-19T15:37:16Z</time>
      </trkpt>
      <trkpt lat="47.09058" lon="5.49698">
        <ele>203.456177</ele>
        <time>2011-04-19T15:37:30Z</time>
      </trkpt>
      <trkpt lat="47.09017" lon="5.49663">
        <ele>203.93689</ele>
        <time>2011-04-19T15:37:42Z</time>
      </trkpt>
      <trkpt lat="47.08971" lon="5.49623">
        <ele>203.456177</ele>
        <time>2011-04-19T15:37:52Z</time>
      </trkpt>
      <trkpt lat="47.08966" lon="5.49618">
        <ele>203.456177</ele>
        <time>2011-04-19T15:37:55Z</time>
      </trkpt>
      <trkpt lat="47.08956" lon="5.49599">
        <ele>203.93689</ele>
        <time>2011-04-19T15:38:00Z</time>
      </trkpt>
      <trkpt lat="47.08925" lon="5.49547">
        <ele>204.41748</ele>
        <time>2011-04-19T15:38:10Z</time>
      </trkpt>
      <trkpt lat="47.0892" lon="5.49539">
        <ele>204.41748</ele>
        <time>2011-04-19T15:38:11Z</time>
      </trkpt>
      <trkpt lat="47.08898" lon="5.49453">
        <ele>205.378784</ele>
        <time>2011-04-19T15:38:22Z</time>
      </trkpt>
      <trkpt lat="47.08896" lon="5.49449">
        <ele>205.378784</ele>
        <time>2011-04-19T15:38:32Z</time>
      </trkpt>
      <trkpt lat="47.08891" lon="5.49437">
        <ele>206.820679</ele>
        <time>2011-04-19T15:39:25Z</time>
      </trkpt>
      <trkpt lat="47.0887" lon="5.49437">
        <ele>206.820679</ele>
        <time>2011-04-19T15:39:30Z</time>
      </trkpt>
      <trkpt lat="47.08798" lon="5.49487">
        <ele>208.262817</ele>
        <time>2011-04-19T15:39:47Z</time>
      </trkpt>
      <trkpt lat="47.08741" lon="5.49523">
        <ele>207.782104</ele>
        <time>2011-04-19T15:39:57Z</time>
      </trkpt>
      <trkpt lat="47.08702" lon="5.49493">
        <ele>206.820679</ele>
        <time>2011-04-19T15:40:04Z</time>
      </trkpt>
      <trkpt lat="47.087" lon="5.4947">
        <ele>205.378784</ele>
        <time>2011-04-19T15:40:06Z</time>
      </trkpt>
      <trkpt lat="47.087" lon="5.49445">
        <ele>204.898071</ele>
        <time>2011-04-19T15:40:08Z</time>
      </trkpt>
      <trkpt lat="47.08665" lon="5.49304">
        <ele>202.975464</ele>
        <time>2011-04-19T15:40:21Z</time>
      </trkpt>
      <trkpt lat="47.08608" lon="5.49159">
        <ele>203.456177</ele>
        <time>2011-04-19T15:40:37Z</time>
      </trkpt>
      <trkpt lat="47.08507" lon="5.49038">
        <ele>203.456177</ele>
        <time>2011-04-19T15:40:55Z</time>
      </trkpt>
      <trkpt lat="47.08405" lon="5.48871">
        <ele>203.93689</ele>
        <time>2011-04-19T15:41:15Z</time>
      </trkpt>
      <trkpt lat="47.08397" lon="5.48842">
        <ele>203.93689</ele>
        <time>2011-04-19T15:41:18Z</time>
      </trkpt>
      <trkpt lat="47.0837" lon="5.48813">
        <ele>203.456177</ele>
        <time>2011-04-19T15:41:23Z</time>
      </trkpt>
      <trkpt lat="47.08269" lon="5.48651">
        <ele>204.41748</ele>
        <time>2011-04-19T15:41:43Z</time>
      </trkpt>
      <trkpt lat="47.08177" lon="5.48546">
        <ele>203.93689</ele>
        <time>2011-04-19T15:41:58Z</time>
      </trkpt>
      <trkpt lat="47.08086" lon="5.48479">
        <ele>203.456177</ele>
        <time>2011-04-19T15:42:11Z</time>
      </trkpt>
      <trkpt lat="47.08047" lon="5.48498">
        <ele>203.456177</ele>
        <time>2011-04-19T15:42:17Z</time>
      </trkpt>
      <trkpt lat="47.08044" lon="5.48508">
        <ele>203.93689</ele>
        <time>2011-04-19T15:42:18Z</time>
      </trkpt>
      <trkpt lat="47.07969" lon="5.48734">
        <ele>204.41748</ele>
        <time>2011-04-19T15:42:41Z</time>
      </trkpt>
      <trkpt lat="47.07927" lon="5.48869">
        <ele>205.378784</ele>
        <time>2011-04-19T15:42:58Z</time>
      </trkpt>
      <trkpt lat="47.07906" lon="5.48921">
        <ele>204.41748</ele>
        <time>2011-04-19T15:43:05Z</time>
      </trkpt>
      <trkpt lat="47.07889" lon="5.48945">
        <ele>204.41748</ele>
        <time>2011-04-19T15:43:09Z</time>
      </trkpt>
      <trkpt lat="47.07826" lon="5.48956">
        <ele>203.93689</ele>
        <time>2011-04-19T15:43:19Z</time>
      </trkpt>
      <trkpt lat="47.07811" lon="5.48928">
        <ele>204.41748</ele>
        <time>2011-04-19T15:43:24Z</time>
      </trkpt>
      <trkpt lat="47.07809" lon="5.48915">
        <ele>204.41748</ele>
        <time>2011-04-19T15:43:26Z</time>
      </trkpt>
      <trkpt lat="47.07773" lon="5.48878">
        <ele>205.378784</ele>
        <time>2011-04-19T15:43:35Z</time>
      </trkpt>
      <trkpt lat="47.07745" lon="5.48914">
        <ele>204.898071</ele>
        <time>2011-04-19T15:43:42Z</time>
      </trkpt>
      <trkpt lat="47.07744" lon="5.48923">
        <ele>204.898071</ele>
        <time>2011-04-19T15:43:43Z</time>
      </trkpt>
      <trkpt lat="47.07689" lon="5.48993">
        <ele>205.859497</ele>
        <time>2011-04-19T15:43:55Z</time>
      </trkpt>
      <trkpt lat="47.07593" lon="5.49124">
        <ele>207.301392</ele>
        <time>2011-04-19T15:44:17Z</time>
      </trkpt>
      <trkpt lat="47.07493" lon="5.49319">
        <ele>208.743408</ele>
        <time>2011-04-19T15:44:45Z</time>
      </trkpt>
      <trkpt lat="47.07443" lon="5.4941">
        <ele>212.108032</ele>
        <time>2011-04-19T15:45:03Z</time>
      </trkpt>
      <trkpt lat="47.0742" lon="5.49425">
        <ele>213.550049</ele>
        <time>2011-04-19T15:45:10Z</time>
      </trkpt>
      <trkpt lat="47.07428" lon="5.49464">
        <ele>214.03064</ele>
        <time>2011-04-19T15:45:17Z</time>
      </trkpt>
      <trkpt lat="47.07436" lon="5.49472">
        <ele>214.03064</ele>
        <time>2011-04-19T15:45:19Z</time>
      </trkpt>
      <trkpt lat="47.07435" lon="5.49494">
        <ele>214.51123</ele>
        <time>2011-04-19T15:45:23Z</time>
      </trkpt>
      <trkpt lat="47.07434" lon="5.49508">
        <ele>214.51123</ele>
        <time>2011-04-19T15:45:34Z</time>
      </trkpt>
      <trkpt lat="47.07433" lon="5.49507">
        <ele>214.991943</ele>
        <time>2011-04-19T15:46:03Z</time>
      </trkpt>
      <trkpt lat="47.07433" lon="5.49507">
        <ele>215.472656</ele>
        <time>2011-04-19T15:46:11Z</time>
      </trkpt>
    </trkseg>
  </trk>
</gpx>